<?xml version="1.0" encoding="UTF-8" standalone="no" ?>
<gpx xmlns="http://www.topografix.com/GPX/1/1" xmlns:xsi="http://www.w3.org/2001/XMLSchema-instance" xsi:schemaLocation="http://www.topografix.com/GPX/1/1 http://www.topografix.com/GPX/1/1/gpx.xsd" version="1.1" creator="VisuGPX - https://www.visugpx.com">
  <metadata>
    <name>Calanques - Tour et sommet du mont Puget</name>
    <desc><![CDATA[Boucle au départ du col de la Gineste par le col Ricard, le col de la Candelle, retour par la piste sous les falaises de Luminy.
]]></desc>
  </metadata>
  <trk>
    <name><![CDATA[2025-10-12_09-39_Sun]]></name>
    <trkseg>
      <trkpt lat="43.24025" lon="5.4569">
        <ele>330</ele>
        <time>2025-10-12T07:43:08Z</time>
      </trkpt>
      <trkpt lat="43.24018" lon="5.45688">
        <ele>329.3</ele>
        <time>2025-10-12T07:43:29Z</time>
      </trkpt>
      <trkpt lat="43.24005" lon="5.45696">
        <ele>328.7</ele>
        <time>2025-10-12T07:43:50Z</time>
      </trkpt>
      <trkpt lat="43.23983" lon="5.45699">
        <ele>329.4</ele>
        <time>2025-10-12T07:44:11Z</time>
      </trkpt>
      <trkpt lat="43.23962" lon="5.457">
        <ele>329.8</ele>
        <time>2025-10-12T07:44:32Z</time>
      </trkpt>
      <trkpt lat="43.23941" lon="5.45689">
        <ele>331.9</ele>
        <time>2025-10-12T07:44:53Z</time>
      </trkpt>
      <trkpt lat="43.23919" lon="5.45689">
        <ele>333.2</ele>
        <time>2025-10-12T07:45:14Z</time>
      </trkpt>
      <trkpt lat="43.23905" lon="5.45701">
        <ele>333.5</ele>
        <time>2025-10-12T07:45:35Z</time>
      </trkpt>
      <trkpt lat="43.239" lon="5.45711">
        <ele>333.8</ele>
        <time>2025-10-12T07:45:56Z</time>
      </trkpt>
      <trkpt lat="43.23885" lon="5.45732">
        <ele>334.5</ele>
        <time>2025-10-12T07:46:17Z</time>
      </trkpt>
      <trkpt lat="43.23871" lon="5.45755">
        <ele>335.9</ele>
        <time>2025-10-12T07:46:38Z</time>
      </trkpt>
      <trkpt lat="43.2385" lon="5.4577">
        <ele>336.1</ele>
        <time>2025-10-12T07:46:59Z</time>
      </trkpt>
      <trkpt lat="43.23827" lon="5.45779">
        <ele>335.1</ele>
        <time>2025-10-12T07:47:20Z</time>
      </trkpt>
      <trkpt lat="43.23804" lon="5.45791">
        <ele>334.3</ele>
        <time>2025-10-12T07:47:41Z</time>
      </trkpt>
      <trkpt lat="43.23782" lon="5.45805">
        <ele>334.8</ele>
        <time>2025-10-12T07:48:02Z</time>
      </trkpt>
      <trkpt lat="43.23757" lon="5.45799">
        <ele>335.7</ele>
        <time>2025-10-12T07:48:23Z</time>
      </trkpt>
      <trkpt lat="43.23734" lon="5.45794">
        <ele>336.9</ele>
        <time>2025-10-12T07:48:44Z</time>
      </trkpt>
      <trkpt lat="43.23709" lon="5.45795">
        <ele>337.1</ele>
        <time>2025-10-12T07:49:05Z</time>
      </trkpt>
      <trkpt lat="43.23685" lon="5.45799">
        <ele>338</ele>
        <time>2025-10-12T07:49:26Z</time>
      </trkpt>
      <trkpt lat="43.23664" lon="5.45804">
        <ele>341</ele>
        <time>2025-10-12T07:49:47Z</time>
      </trkpt>
      <trkpt lat="43.23645" lon="5.45807">
        <ele>344</ele>
        <time>2025-10-12T07:50:08Z</time>
      </trkpt>
      <trkpt lat="43.23629" lon="5.45821">
        <ele>346.7</ele>
        <time>2025-10-12T07:50:29Z</time>
      </trkpt>
      <trkpt lat="43.23618" lon="5.4584">
        <ele>349.4</ele>
        <time>2025-10-12T07:50:50Z</time>
      </trkpt>
      <trkpt lat="43.23604" lon="5.45853">
        <ele>352</ele>
        <time>2025-10-12T07:51:11Z</time>
      </trkpt>
      <trkpt lat="43.23594" lon="5.45875">
        <ele>354.5</ele>
        <time>2025-10-12T07:51:32Z</time>
      </trkpt>
      <trkpt lat="43.23587" lon="5.45897">
        <ele>355.6</ele>
        <time>2025-10-12T07:51:53Z</time>
      </trkpt>
      <trkpt lat="43.23578" lon="5.45912">
        <ele>359.2</ele>
        <time>2025-10-12T07:52:14Z</time>
      </trkpt>
      <trkpt lat="43.23575" lon="5.45932">
        <ele>363.2</ele>
        <time>2025-10-12T07:52:35Z</time>
      </trkpt>
      <trkpt lat="43.23571" lon="5.4595">
        <ele>366.4</ele>
        <time>2025-10-12T07:52:56Z</time>
      </trkpt>
      <trkpt lat="43.23571" lon="5.45969">
        <ele>368.6</ele>
        <time>2025-10-12T07:53:17Z</time>
      </trkpt>
      <trkpt lat="43.2357" lon="5.45987">
        <ele>372.4</ele>
        <time>2025-10-12T07:53:38Z</time>
      </trkpt>
      <trkpt lat="43.23575" lon="5.46003">
        <ele>374.8</ele>
        <time>2025-10-12T07:53:59Z</time>
      </trkpt>
      <trkpt lat="43.23576" lon="5.46021">
        <ele>379.3</ele>
        <time>2025-10-12T07:54:20Z</time>
      </trkpt>
      <trkpt lat="43.23577" lon="5.4604">
        <ele>382.4</ele>
        <time>2025-10-12T07:54:41Z</time>
      </trkpt>
      <trkpt lat="43.23581" lon="5.46059">
        <ele>385.7</ele>
        <time>2025-10-12T07:55:02Z</time>
      </trkpt>
      <trkpt lat="43.23584" lon="5.4608">
        <ele>389</ele>
        <time>2025-10-12T07:55:23Z</time>
      </trkpt>
      <trkpt lat="43.23586" lon="5.46098">
        <ele>392.3</ele>
        <time>2025-10-12T07:55:44Z</time>
      </trkpt>
      <trkpt lat="43.23586" lon="5.46119">
        <ele>395.2</ele>
        <time>2025-10-12T07:56:05Z</time>
      </trkpt>
      <trkpt lat="43.23583" lon="5.4614">
        <ele>398.2</ele>
        <time>2025-10-12T07:56:26Z</time>
      </trkpt>
      <trkpt lat="43.2358" lon="5.46164">
        <ele>399.7</ele>
        <time>2025-10-12T07:56:47Z</time>
      </trkpt>
      <trkpt lat="43.23566" lon="5.46182">
        <ele>400.1</ele>
        <time>2025-10-12T07:57:08Z</time>
      </trkpt>
      <trkpt lat="43.2355" lon="5.46181">
        <ele>399.4</ele>
        <time>2025-10-12T07:57:29Z</time>
      </trkpt>
      <trkpt lat="43.23533" lon="5.46189">
        <ele>397.3</ele>
        <time>2025-10-12T07:57:50Z</time>
      </trkpt>
      <trkpt lat="43.23517" lon="5.46201">
        <ele>394.1</ele>
        <time>2025-10-12T07:58:11Z</time>
      </trkpt>
      <trkpt lat="43.23497" lon="5.46212">
        <ele>393.2</ele>
        <time>2025-10-12T07:58:32Z</time>
      </trkpt>
      <trkpt lat="43.23483" lon="5.46227">
        <ele>390.7</ele>
        <time>2025-10-12T07:58:53Z</time>
      </trkpt>
      <trkpt lat="43.23469" lon="5.46247">
        <ele>388.5</ele>
        <time>2025-10-12T07:59:14Z</time>
      </trkpt>
      <trkpt lat="43.23454" lon="5.46271">
        <ele>387.3</ele>
        <time>2025-10-12T07:59:35Z</time>
      </trkpt>
      <trkpt lat="43.2344" lon="5.46297">
        <ele>386.2</ele>
        <time>2025-10-12T07:59:56Z</time>
      </trkpt>
      <trkpt lat="43.23423" lon="5.46321">
        <ele>385.2</ele>
        <time>2025-10-12T08:00:17Z</time>
      </trkpt>
      <trkpt lat="43.23407" lon="5.46345">
        <ele>385.1</ele>
        <time>2025-10-12T08:00:38Z</time>
      </trkpt>
      <trkpt lat="43.23388" lon="5.46365">
        <ele>386</ele>
        <time>2025-10-12T08:00:59Z</time>
      </trkpt>
      <trkpt lat="43.23374" lon="5.46383">
        <ele>387.5</ele>
        <time>2025-10-12T08:01:20Z</time>
      </trkpt>
      <trkpt lat="43.23358" lon="5.464">
        <ele>387.7</ele>
        <time>2025-10-12T08:01:41Z</time>
      </trkpt>
      <trkpt lat="43.23341" lon="5.46416">
        <ele>387.3</ele>
        <time>2025-10-12T08:02:02Z</time>
      </trkpt>
      <trkpt lat="43.23323" lon="5.46426">
        <ele>388.1</ele>
        <time>2025-10-12T08:02:23Z</time>
      </trkpt>
      <trkpt lat="43.23303" lon="5.46431">
        <ele>388.4</ele>
        <time>2025-10-12T08:02:44Z</time>
      </trkpt>
      <trkpt lat="43.23282" lon="5.4643">
        <ele>387.3</ele>
        <time>2025-10-12T08:03:05Z</time>
      </trkpt>
      <trkpt lat="43.23263" lon="5.46432">
        <ele>387.3</ele>
        <time>2025-10-12T08:05:32Z</time>
      </trkpt>
      <trkpt lat="43.23249" lon="5.46433">
        <ele>385.8</ele>
        <time>2025-10-12T08:05:53Z</time>
      </trkpt>
      <trkpt lat="43.23231" lon="5.46431">
        <ele>384.4</ele>
        <time>2025-10-12T08:06:14Z</time>
      </trkpt>
      <trkpt lat="43.23214" lon="5.46441">
        <ele>382.3</ele>
        <time>2025-10-12T08:06:35Z</time>
      </trkpt>
      <trkpt lat="43.23193" lon="5.46451">
        <ele>382.6</ele>
        <time>2025-10-12T08:06:56Z</time>
      </trkpt>
      <trkpt lat="43.23173" lon="5.46451">
        <ele>384.6</ele>
        <time>2025-10-12T08:07:17Z</time>
      </trkpt>
      <trkpt lat="43.23159" lon="5.4645">
        <ele>382.1</ele>
        <time>2025-10-12T08:07:38Z</time>
      </trkpt>
      <trkpt lat="43.2315" lon="5.46431">
        <ele>379.6</ele>
        <time>2025-10-12T08:07:59Z</time>
      </trkpt>
      <trkpt lat="43.23145" lon="5.46413">
        <ele>376.4</ele>
        <time>2025-10-12T08:08:20Z</time>
      </trkpt>
      <trkpt lat="43.2314" lon="5.46398">
        <ele>373.4</ele>
        <time>2025-10-12T08:08:41Z</time>
      </trkpt>
      <trkpt lat="43.23139" lon="5.46381">
        <ele>371.7</ele>
        <time>2025-10-12T08:09:02Z</time>
      </trkpt>
      <trkpt lat="43.23137" lon="5.46357">
        <ele>369.1</ele>
        <time>2025-10-12T08:09:23Z</time>
      </trkpt>
      <trkpt lat="43.23134" lon="5.46329">
        <ele>365</ele>
        <time>2025-10-12T08:09:44Z</time>
      </trkpt>
      <trkpt lat="43.2313" lon="5.46319">
        <ele>362.4</ele>
        <time>2025-10-12T08:10:05Z</time>
      </trkpt>
      <trkpt lat="43.23119" lon="5.46313">
        <ele>360.3</ele>
        <time>2025-10-12T08:10:26Z</time>
      </trkpt>
      <trkpt lat="43.23107" lon="5.46315">
        <ele>357.4</ele>
        <time>2025-10-12T08:10:47Z</time>
      </trkpt>
      <trkpt lat="43.23106" lon="5.46314">
        <ele>355.4</ele>
        <time>2025-10-12T08:11:08Z</time>
      </trkpt>
      <trkpt lat="43.23085" lon="5.4631">
        <ele>351.6</ele>
        <time>2025-10-12T08:11:29Z</time>
      </trkpt>
      <trkpt lat="43.23065" lon="5.46314">
        <ele>350.7</ele>
        <time>2025-10-12T08:11:50Z</time>
      </trkpt>
      <trkpt lat="43.23046" lon="5.46327">
        <ele>350.2</ele>
        <time>2025-10-12T08:12:11Z</time>
      </trkpt>
      <trkpt lat="43.23027" lon="5.46342">
        <ele>350.1</ele>
        <time>2025-10-12T08:12:32Z</time>
      </trkpt>
      <trkpt lat="43.23008" lon="5.46358">
        <ele>351.1</ele>
        <time>2025-10-12T08:12:53Z</time>
      </trkpt>
      <trkpt lat="43.22996" lon="5.46369">
        <ele>350.3</ele>
        <time>2025-10-12T08:13:14Z</time>
      </trkpt>
      <trkpt lat="43.22981" lon="5.46386">
        <ele>348.1</ele>
        <time>2025-10-12T08:13:35Z</time>
      </trkpt>
      <trkpt lat="43.22965" lon="5.46409">
        <ele>343.7</ele>
        <time>2025-10-12T08:13:56Z</time>
      </trkpt>
      <trkpt lat="43.22944" lon="5.46427">
        <ele>341</ele>
        <time>2025-10-12T08:14:17Z</time>
      </trkpt>
      <trkpt lat="43.22923" lon="5.46443">
        <ele>337.1</ele>
        <time>2025-10-12T08:14:38Z</time>
      </trkpt>
      <trkpt lat="43.22902" lon="5.46461">
        <ele>332.9</ele>
        <time>2025-10-12T08:14:59Z</time>
      </trkpt>
      <trkpt lat="43.22886" lon="5.46475">
        <ele>328.9</ele>
        <time>2025-10-12T08:15:20Z</time>
      </trkpt>
      <trkpt lat="43.22872" lon="5.46494">
        <ele>325.8</ele>
        <time>2025-10-12T08:15:41Z</time>
      </trkpt>
      <trkpt lat="43.2286" lon="5.46514">
        <ele>320.1</ele>
        <time>2025-10-12T08:16:02Z</time>
      </trkpt>
      <trkpt lat="43.22848" lon="5.46532">
        <ele>316.2</ele>
        <time>2025-10-12T08:16:23Z</time>
      </trkpt>
      <trkpt lat="43.22835" lon="5.46559">
        <ele>309.2</ele>
        <time>2025-10-12T08:16:44Z</time>
      </trkpt>
      <trkpt lat="43.22824" lon="5.4659">
        <ele>304.4</ele>
        <time>2025-10-12T08:17:05Z</time>
      </trkpt>
      <trkpt lat="43.22816" lon="5.46617">
        <ele>301.3</ele>
        <time>2025-10-12T08:17:26Z</time>
      </trkpt>
      <trkpt lat="43.22816" lon="5.4662">
        <ele>301.4</ele>
        <time>2025-10-12T08:17:47Z</time>
      </trkpt>
      <trkpt lat="43.22817" lon="5.46637">
        <ele>303</ele>
        <time>2025-10-12T08:18:08Z</time>
      </trkpt>
      <trkpt lat="43.2281" lon="5.46672">
        <ele>303.1</ele>
        <time>2025-10-12T08:18:29Z</time>
      </trkpt>
      <trkpt lat="43.22797" lon="5.46701">
        <ele>303.6</ele>
        <time>2025-10-12T08:18:50Z</time>
      </trkpt>
      <trkpt lat="43.22781" lon="5.46729">
        <ele>304</ele>
        <time>2025-10-12T08:19:11Z</time>
      </trkpt>
      <trkpt lat="43.22765" lon="5.46757">
        <ele>304.2</ele>
        <time>2025-10-12T08:19:32Z</time>
      </trkpt>
      <trkpt lat="43.22748" lon="5.46784">
        <ele>305.7</ele>
        <time>2025-10-12T08:19:53Z</time>
      </trkpt>
      <trkpt lat="43.22727" lon="5.46801">
        <ele>307.3</ele>
        <time>2025-10-12T08:20:14Z</time>
      </trkpt>
      <trkpt lat="43.22714" lon="5.46802">
        <ele>310.3</ele>
        <time>2025-10-12T08:20:35Z</time>
      </trkpt>
      <trkpt lat="43.22697" lon="5.46797">
        <ele>310.2</ele>
        <time>2025-10-12T08:23:02Z</time>
      </trkpt>
      <trkpt lat="43.22677" lon="5.46796">
        <ele>312</ele>
        <time>2025-10-12T08:23:23Z</time>
      </trkpt>
      <trkpt lat="43.22663" lon="5.46787">
        <ele>314.4</ele>
        <time>2025-10-12T08:23:44Z</time>
      </trkpt>
      <trkpt lat="43.22645" lon="5.46784">
        <ele>316.5</ele>
        <time>2025-10-12T08:24:05Z</time>
      </trkpt>
      <trkpt lat="43.22629" lon="5.46791">
        <ele>320.6</ele>
        <time>2025-10-12T08:24:26Z</time>
      </trkpt>
      <trkpt lat="43.22609" lon="5.46787">
        <ele>322.8</ele>
        <time>2025-10-12T08:24:47Z</time>
      </trkpt>
      <trkpt lat="43.22592" lon="5.4677">
        <ele>324</ele>
        <time>2025-10-12T08:25:08Z</time>
      </trkpt>
      <trkpt lat="43.22581" lon="5.46761">
        <ele>324</ele>
        <time>2025-10-12T08:25:29Z</time>
      </trkpt>
      <trkpt lat="43.22573" lon="5.46746">
        <ele>326.1</ele>
        <time>2025-10-12T08:25:50Z</time>
      </trkpt>
      <trkpt lat="43.2256" lon="5.46728">
        <ele>326.1</ele>
        <time>2025-10-12T08:26:11Z</time>
      </trkpt>
      <trkpt lat="43.22545" lon="5.46724">
        <ele>327.6</ele>
        <time>2025-10-12T08:26:32Z</time>
      </trkpt>
      <trkpt lat="43.22536" lon="5.46709">
        <ele>332.2</ele>
        <time>2025-10-12T08:26:53Z</time>
      </trkpt>
      <trkpt lat="43.22528" lon="5.46702">
        <ele>333.1</ele>
        <time>2025-10-12T08:27:14Z</time>
      </trkpt>
      <trkpt lat="43.22519" lon="5.46686">
        <ele>335.5</ele>
        <time>2025-10-12T08:27:35Z</time>
      </trkpt>
      <trkpt lat="43.22512" lon="5.46676">
        <ele>338.7</ele>
        <time>2025-10-12T08:27:56Z</time>
      </trkpt>
      <trkpt lat="43.22507" lon="5.46669">
        <ele>343.2</ele>
        <time>2025-10-12T08:28:17Z</time>
      </trkpt>
      <trkpt lat="43.22501" lon="5.46658">
        <ele>348.1</ele>
        <time>2025-10-12T08:28:38Z</time>
      </trkpt>
      <trkpt lat="43.22495" lon="5.46652">
        <ele>351</ele>
        <time>2025-10-12T08:28:59Z</time>
      </trkpt>
      <trkpt lat="43.22486" lon="5.46648">
        <ele>353.8</ele>
        <time>2025-10-12T08:29:20Z</time>
      </trkpt>
      <trkpt lat="43.22476" lon="5.4664">
        <ele>357.4</ele>
        <time>2025-10-12T08:29:41Z</time>
      </trkpt>
      <trkpt lat="43.22474" lon="5.46637">
        <ele>357.2</ele>
        <time>2025-10-12T08:30:02Z</time>
      </trkpt>
      <trkpt lat="43.22472" lon="5.46635">
        <ele>360.8</ele>
        <time>2025-10-12T08:30:23Z</time>
      </trkpt>
      <trkpt lat="43.22471" lon="5.46625">
        <ele>366.3</ele>
        <time>2025-10-12T08:30:44Z</time>
      </trkpt>
      <trkpt lat="43.22467" lon="5.46623">
        <ele>370.1</ele>
        <time>2025-10-12T08:31:47Z</time>
      </trkpt>
      <trkpt lat="43.22465" lon="5.46622">
        <ele>370.7</ele>
        <time>2025-10-12T08:32:08Z</time>
      </trkpt>
      <trkpt lat="43.22463" lon="5.4662">
        <ele>373.5</ele>
        <time>2025-10-12T08:32:29Z</time>
      </trkpt>
      <trkpt lat="43.22461" lon="5.46616">
        <ele>376.9</ele>
        <time>2025-10-12T08:36:20Z</time>
      </trkpt>
      <trkpt lat="43.22451" lon="5.46608">
        <ele>382.1</ele>
        <time>2025-10-12T08:36:41Z</time>
      </trkpt>
      <trkpt lat="43.22438" lon="5.46593">
        <ele>384.4</ele>
        <time>2025-10-12T08:37:02Z</time>
      </trkpt>
      <trkpt lat="43.22426" lon="5.46582">
        <ele>389</ele>
        <time>2025-10-12T08:37:23Z</time>
      </trkpt>
      <trkpt lat="43.2242" lon="5.46568">
        <ele>393.5</ele>
        <time>2025-10-12T08:37:44Z</time>
      </trkpt>
      <trkpt lat="43.22417" lon="5.46557">
        <ele>395</ele>
        <time>2025-10-12T08:38:05Z</time>
      </trkpt>
      <trkpt lat="43.2241" lon="5.46544">
        <ele>399.4</ele>
        <time>2025-10-12T08:38:26Z</time>
      </trkpt>
      <trkpt lat="43.22396" lon="5.46526">
        <ele>400.8</ele>
        <time>2025-10-12T08:38:47Z</time>
      </trkpt>
      <trkpt lat="43.22381" lon="5.46514">
        <ele>402.4</ele>
        <time>2025-10-12T08:39:08Z</time>
      </trkpt>
      <trkpt lat="43.22367" lon="5.46497">
        <ele>407.6</ele>
        <time>2025-10-12T08:39:29Z</time>
      </trkpt>
      <trkpt lat="43.2236" lon="5.46486">
        <ele>409.2</ele>
        <time>2025-10-12T08:39:50Z</time>
      </trkpt>
      <trkpt lat="43.22348" lon="5.46482">
        <ele>414</ele>
        <time>2025-10-12T08:40:11Z</time>
      </trkpt>
      <trkpt lat="43.22336" lon="5.46462">
        <ele>415.4</ele>
        <time>2025-10-12T08:40:32Z</time>
      </trkpt>
      <trkpt lat="43.22322" lon="5.46459">
        <ele>417.4</ele>
        <time>2025-10-12T08:40:53Z</time>
      </trkpt>
      <trkpt lat="43.22311" lon="5.46449">
        <ele>418.8</ele>
        <time>2025-10-12T08:41:14Z</time>
      </trkpt>
      <trkpt lat="43.22299" lon="5.46436">
        <ele>423.1</ele>
        <time>2025-10-12T08:41:35Z</time>
      </trkpt>
      <trkpt lat="43.22288" lon="5.46425">
        <ele>426.2</ele>
        <time>2025-10-12T08:41:56Z</time>
      </trkpt>
      <trkpt lat="43.22276" lon="5.4642">
        <ele>429.6</ele>
        <time>2025-10-12T08:42:17Z</time>
      </trkpt>
      <trkpt lat="43.22268" lon="5.46416">
        <ele>431.1</ele>
        <time>2025-10-12T08:42:38Z</time>
      </trkpt>
      <trkpt lat="43.22259" lon="5.46411">
        <ele>435.7</ele>
        <time>2025-10-12T08:42:59Z</time>
      </trkpt>
      <trkpt lat="43.22247" lon="5.46397">
        <ele>439.9</ele>
        <time>2025-10-12T08:43:20Z</time>
      </trkpt>
      <trkpt lat="43.22235" lon="5.46398">
        <ele>441.4</ele>
        <time>2025-10-12T08:43:41Z</time>
      </trkpt>
      <trkpt lat="43.22227" lon="5.46396">
        <ele>446.1</ele>
        <time>2025-10-12T08:44:02Z</time>
      </trkpt>
      <trkpt lat="43.22215" lon="5.464">
        <ele>450.2</ele>
        <time>2025-10-12T08:44:23Z</time>
      </trkpt>
      <trkpt lat="43.22205" lon="5.46399">
        <ele>453.4</ele>
        <time>2025-10-12T08:44:44Z</time>
      </trkpt>
      <trkpt lat="43.22195" lon="5.464">
        <ele>455.7</ele>
        <time>2025-10-12T08:45:05Z</time>
      </trkpt>
      <trkpt lat="43.22184" lon="5.46401">
        <ele>458.7</ele>
        <time>2025-10-12T08:45:26Z</time>
      </trkpt>
      <trkpt lat="43.22173" lon="5.46401">
        <ele>462.7</ele>
        <time>2025-10-12T08:45:47Z</time>
      </trkpt>
      <trkpt lat="43.22163" lon="5.46399">
        <ele>466</ele>
        <time>2025-10-12T08:46:08Z</time>
      </trkpt>
      <trkpt lat="43.22153" lon="5.46404">
        <ele>469.7</ele>
        <time>2025-10-12T08:46:29Z</time>
      </trkpt>
      <trkpt lat="43.22146" lon="5.46394">
        <ele>473</ele>
        <time>2025-10-12T08:46:50Z</time>
      </trkpt>
      <trkpt lat="43.22136" lon="5.46396">
        <ele>475.9</ele>
        <time>2025-10-12T08:47:11Z</time>
      </trkpt>
      <trkpt lat="43.22128" lon="5.464">
        <ele>479.2</ele>
        <time>2025-10-12T08:47:32Z</time>
      </trkpt>
      <trkpt lat="43.22118" lon="5.46397">
        <ele>483.2</ele>
        <time>2025-10-12T08:47:53Z</time>
      </trkpt>
      <trkpt lat="43.22108" lon="5.46395">
        <ele>486.8</ele>
        <time>2025-10-12T08:48:14Z</time>
      </trkpt>
      <trkpt lat="43.22099" lon="5.4639">
        <ele>490.9</ele>
        <time>2025-10-12T08:48:35Z</time>
      </trkpt>
      <trkpt lat="43.22089" lon="5.46388">
        <ele>495</ele>
        <time>2025-10-12T08:48:56Z</time>
      </trkpt>
      <trkpt lat="43.22081" lon="5.46386">
        <ele>497.8</ele>
        <time>2025-10-12T08:49:17Z</time>
      </trkpt>
      <trkpt lat="43.22073" lon="5.46388">
        <ele>501.5</ele>
        <time>2025-10-12T08:49:38Z</time>
      </trkpt>
      <trkpt lat="43.22064" lon="5.46389">
        <ele>504.5</ele>
        <time>2025-10-12T08:49:59Z</time>
      </trkpt>
      <trkpt lat="43.22056" lon="5.46383">
        <ele>508.6</ele>
        <time>2025-10-12T08:50:20Z</time>
      </trkpt>
      <trkpt lat="43.22051" lon="5.4637">
        <ele>513.8</ele>
        <time>2025-10-12T08:50:41Z</time>
      </trkpt>
      <trkpt lat="43.22043" lon="5.46368">
        <ele>516.7</ele>
        <time>2025-10-12T08:51:02Z</time>
      </trkpt>
      <trkpt lat="43.22036" lon="5.4636">
        <ele>520.8</ele>
        <time>2025-10-12T08:51:23Z</time>
      </trkpt>
      <trkpt lat="43.22029" lon="5.46357">
        <ele>522.3</ele>
        <time>2025-10-12T08:51:44Z</time>
      </trkpt>
      <trkpt lat="43.22025" lon="5.46351">
        <ele>527.2</ele>
        <time>2025-10-12T08:53:29Z</time>
      </trkpt>
      <trkpt lat="43.22026" lon="5.46342">
        <ele>528.7</ele>
        <time>2025-10-12T08:53:50Z</time>
      </trkpt>
      <trkpt lat="43.22032" lon="5.46312">
        <ele>529.2</ele>
        <time>2025-10-12T08:54:11Z</time>
      </trkpt>
      <trkpt lat="43.22037" lon="5.46282">
        <ele>530.8</ele>
        <time>2025-10-12T08:54:32Z</time>
      </trkpt>
      <trkpt lat="43.22039" lon="5.46251">
        <ele>528.9</ele>
        <time>2025-10-12T08:54:53Z</time>
      </trkpt>
      <trkpt lat="43.22044" lon="5.46217">
        <ele>530.1</ele>
        <time>2025-10-12T08:55:14Z</time>
      </trkpt>
      <trkpt lat="43.22045" lon="5.46183">
        <ele>532.2</ele>
        <time>2025-10-12T08:55:35Z</time>
      </trkpt>
      <trkpt lat="43.22057" lon="5.46153">
        <ele>532.6</ele>
        <time>2025-10-12T08:55:56Z</time>
      </trkpt>
      <trkpt lat="43.22069" lon="5.46128">
        <ele>534.1</ele>
        <time>2025-10-12T08:56:17Z</time>
      </trkpt>
      <trkpt lat="43.22078" lon="5.46108">
        <ele>536.8</ele>
        <time>2025-10-12T08:56:38Z</time>
      </trkpt>
      <trkpt lat="43.22084" lon="5.4609">
        <ele>540.9</ele>
        <time>2025-10-12T08:56:59Z</time>
      </trkpt>
      <trkpt lat="43.22094" lon="5.46074">
        <ele>543.3</ele>
        <time>2025-10-12T08:57:20Z</time>
      </trkpt>
      <trkpt lat="43.22098" lon="5.46062">
        <ele>545.7</ele>
        <time>2025-10-12T08:57:41Z</time>
      </trkpt>
      <trkpt lat="43.221" lon="5.4604">
        <ele>549.5</ele>
        <time>2025-10-12T08:58:02Z</time>
      </trkpt>
      <trkpt lat="43.22104" lon="5.46025">
        <ele>551.4</ele>
        <time>2025-10-12T08:58:23Z</time>
      </trkpt>
      <trkpt lat="43.22108" lon="5.46007">
        <ele>555</ele>
        <time>2025-10-12T08:58:44Z</time>
      </trkpt>
      <trkpt lat="43.22117" lon="5.45992">
        <ele>557.1</ele>
        <time>2025-10-12T08:59:05Z</time>
      </trkpt>
      <trkpt lat="43.22124" lon="5.45972">
        <ele>561.1</ele>
        <time>2025-10-12T08:59:26Z</time>
      </trkpt>
      <trkpt lat="43.22125" lon="5.45951">
        <ele>562.7</ele>
        <time>2025-10-12T08:59:47Z</time>
      </trkpt>
      <trkpt lat="43.22131" lon="5.45947">
        <ele>560.9</ele>
        <time>2025-10-12T09:04:20Z</time>
      </trkpt>
      <trkpt lat="43.22146" lon="5.4594">
        <ele>562.5</ele>
        <time>2025-10-12T09:04:41Z</time>
      </trkpt>
      <trkpt lat="43.22162" lon="5.45923">
        <ele>562.2</ele>
        <time>2025-10-12T09:05:02Z</time>
      </trkpt>
      <trkpt lat="43.22178" lon="5.45904">
        <ele>563.9</ele>
        <time>2025-10-12T09:05:23Z</time>
      </trkpt>
      <trkpt lat="43.22196" lon="5.45888">
        <ele>564.9</ele>
        <time>2025-10-12T09:05:44Z</time>
      </trkpt>
      <trkpt lat="43.2221" lon="5.45869">
        <ele>568.2</ele>
        <time>2025-10-12T09:06:05Z</time>
      </trkpt>
      <trkpt lat="43.22223" lon="5.45855">
        <ele>569.4</ele>
        <time>2025-10-12T09:06:26Z</time>
      </trkpt>
      <trkpt lat="43.22241" lon="5.45839">
        <ele>566.1</ele>
        <time>2025-10-12T09:06:47Z</time>
      </trkpt>
      <trkpt lat="43.22258" lon="5.45835">
        <ele>561.7</ele>
        <time>2025-10-12T09:07:08Z</time>
      </trkpt>
      <trkpt lat="43.22271" lon="5.45815">
        <ele>562.3</ele>
        <time>2025-10-12T09:07:29Z</time>
      </trkpt>
      <trkpt lat="43.22276" lon="5.45798">
        <ele>564.6</ele>
        <time>2025-10-12T09:07:50Z</time>
      </trkpt>
      <trkpt lat="43.2228" lon="5.45786">
        <ele>565.2</ele>
        <time>2025-10-12T09:08:11Z</time>
      </trkpt>
      <trkpt lat="43.22287" lon="5.45767">
        <ele>566.6</ele>
        <time>2025-10-12T09:08:32Z</time>
      </trkpt>
      <trkpt lat="43.22295" lon="5.45754">
        <ele>565.3</ele>
        <time>2025-10-12T09:08:53Z</time>
      </trkpt>
      <trkpt lat="43.22302" lon="5.45737">
        <ele>565.1</ele>
        <time>2025-10-12T09:09:14Z</time>
      </trkpt>
      <trkpt lat="43.22305" lon="5.45723">
        <ele>564.5</ele>
        <time>2025-10-12T09:09:35Z</time>
      </trkpt>
      <trkpt lat="43.22307" lon="5.45718">
        <ele>565</ele>
        <time>2025-10-12T09:09:56Z</time>
      </trkpt>
      <trkpt lat="43.22307" lon="5.45718">
        <ele>565</ele>
        <time>2025-10-12T09:10:17Z</time>
      </trkpt>
      <trkpt lat="43.22307" lon="5.45716">
        <ele>564.7</ele>
        <time>2025-10-12T09:10:38Z</time>
      </trkpt>
      <trkpt lat="43.22314" lon="5.45707">
        <ele>562.6</ele>
        <time>2025-10-12T09:10:59Z</time>
      </trkpt>
      <trkpt lat="43.22324" lon="5.45694">
        <ele>560.2</ele>
        <time>2025-10-12T09:11:20Z</time>
      </trkpt>
      <trkpt lat="43.22331" lon="5.45683">
        <ele>558.2</ele>
        <time>2025-10-12T09:11:41Z</time>
      </trkpt>
      <trkpt lat="43.22338" lon="5.45677">
        <ele>555.7</ele>
        <time>2025-10-12T09:12:02Z</time>
      </trkpt>
      <trkpt lat="43.22336" lon="5.45665">
        <ele>553</ele>
        <time>2025-10-12T09:12:23Z</time>
      </trkpt>
      <trkpt lat="43.22341" lon="5.4565">
        <ele>550.6</ele>
        <time>2025-10-12T09:12:44Z</time>
      </trkpt>
      <trkpt lat="43.22342" lon="5.45636">
        <ele>548.9</ele>
        <time>2025-10-12T09:13:05Z</time>
      </trkpt>
      <trkpt lat="43.22347" lon="5.45624">
        <ele>546.7</ele>
        <time>2025-10-12T09:13:26Z</time>
      </trkpt>
      <trkpt lat="43.22347" lon="5.45608">
        <ele>543.3</ele>
        <time>2025-10-12T09:13:47Z</time>
      </trkpt>
      <trkpt lat="43.2235" lon="5.45588">
        <ele>543.1</ele>
        <time>2025-10-12T09:14:08Z</time>
      </trkpt>
      <trkpt lat="43.22359" lon="5.45566">
        <ele>542.7</ele>
        <time>2025-10-12T09:14:29Z</time>
      </trkpt>
      <trkpt lat="43.22362" lon="5.45541">
        <ele>543.9</ele>
        <time>2025-10-12T09:14:50Z</time>
      </trkpt>
      <trkpt lat="43.22372" lon="5.45522">
        <ele>546.2</ele>
        <time>2025-10-12T09:15:11Z</time>
      </trkpt>
      <trkpt lat="43.22381" lon="5.45501">
        <ele>548.8</ele>
        <time>2025-10-12T09:15:32Z</time>
      </trkpt>
      <trkpt lat="43.22382" lon="5.45478">
        <ele>549.7</ele>
        <time>2025-10-12T09:15:53Z</time>
      </trkpt>
      <trkpt lat="43.22381" lon="5.45466">
        <ele>552</ele>
        <time>2025-10-12T09:16:14Z</time>
      </trkpt>
      <trkpt lat="43.22384" lon="5.45473">
        <ele>549.9</ele>
        <time>2025-10-12T09:21:08Z</time>
      </trkpt>
      <trkpt lat="43.22383" lon="5.45482">
        <ele>549</ele>
        <time>2025-10-12T09:21:29Z</time>
      </trkpt>
      <trkpt lat="43.22383" lon="5.45508">
        <ele>546.5</ele>
        <time>2025-10-12T09:21:50Z</time>
      </trkpt>
      <trkpt lat="43.22372" lon="5.45533">
        <ele>544.3</ele>
        <time>2025-10-12T09:22:11Z</time>
      </trkpt>
      <trkpt lat="43.22363" lon="5.45557">
        <ele>541.9</ele>
        <time>2025-10-12T09:22:32Z</time>
      </trkpt>
      <trkpt lat="43.22358" lon="5.45585">
        <ele>540.4</ele>
        <time>2025-10-12T09:22:53Z</time>
      </trkpt>
      <trkpt lat="43.22348" lon="5.45609">
        <ele>541.5</ele>
        <time>2025-10-12T09:23:14Z</time>
      </trkpt>
      <trkpt lat="43.22349" lon="5.4563">
        <ele>544.2</ele>
        <time>2025-10-12T09:23:35Z</time>
      </trkpt>
      <trkpt lat="43.22344" lon="5.45646">
        <ele>546.9</ele>
        <time>2025-10-12T09:23:56Z</time>
      </trkpt>
      <trkpt lat="43.22339" lon="5.45661">
        <ele>550.1</ele>
        <time>2025-10-12T09:24:17Z</time>
      </trkpt>
      <trkpt lat="43.22339" lon="5.45677">
        <ele>552.4</ele>
        <time>2025-10-12T09:24:38Z</time>
      </trkpt>
      <trkpt lat="43.22332" lon="5.45689">
        <ele>556</ele>
        <time>2025-10-12T09:24:59Z</time>
      </trkpt>
      <trkpt lat="43.22323" lon="5.45703">
        <ele>559.8</ele>
        <time>2025-10-12T09:25:20Z</time>
      </trkpt>
      <trkpt lat="43.22314" lon="5.45719">
        <ele>561.8</ele>
        <time>2025-10-12T09:25:41Z</time>
      </trkpt>
      <trkpt lat="43.22313" lon="5.45734">
        <ele>563</ele>
        <time>2025-10-12T09:26:02Z</time>
      </trkpt>
      <trkpt lat="43.22304" lon="5.45743">
        <ele>563.4</ele>
        <time>2025-10-12T09:26:23Z</time>
      </trkpt>
      <trkpt lat="43.22295" lon="5.4576">
        <ele>564.6</ele>
        <time>2025-10-12T09:26:44Z</time>
      </trkpt>
      <trkpt lat="43.22285" lon="5.45779">
        <ele>565.2</ele>
        <time>2025-10-12T09:27:05Z</time>
      </trkpt>
      <trkpt lat="43.22281" lon="5.45799">
        <ele>562.1</ele>
        <time>2025-10-12T09:32:20Z</time>
      </trkpt>
      <trkpt lat="43.22273" lon="5.45823">
        <ele>559.8</ele>
        <time>2025-10-12T09:32:41Z</time>
      </trkpt>
      <trkpt lat="43.22261" lon="5.45845">
        <ele>558.2</ele>
        <time>2025-10-12T09:33:02Z</time>
      </trkpt>
      <trkpt lat="43.22244" lon="5.45856">
        <ele>559</ele>
        <time>2025-10-12T09:33:23Z</time>
      </trkpt>
      <trkpt lat="43.22228" lon="5.45862">
        <ele>562.1</ele>
        <time>2025-10-12T09:33:44Z</time>
      </trkpt>
      <trkpt lat="43.22209" lon="5.45876">
        <ele>560.4</ele>
        <time>2025-10-12T09:34:05Z</time>
      </trkpt>
      <trkpt lat="43.22191" lon="5.45898">
        <ele>558.4</ele>
        <time>2025-10-12T09:34:26Z</time>
      </trkpt>
      <trkpt lat="43.2217" lon="5.45915">
        <ele>557</ele>
        <time>2025-10-12T09:34:47Z</time>
      </trkpt>
      <trkpt lat="43.2215" lon="5.45937">
        <ele>555.6</ele>
        <time>2025-10-12T09:35:08Z</time>
      </trkpt>
      <trkpt lat="43.22132" lon="5.45955">
        <ele>556.2</ele>
        <time>2025-10-12T09:35:29Z</time>
      </trkpt>
      <trkpt lat="43.22125" lon="5.45983">
        <ele>555.4</ele>
        <time>2025-10-12T09:35:50Z</time>
      </trkpt>
      <trkpt lat="43.22114" lon="5.46008">
        <ele>551.6</ele>
        <time>2025-10-12T09:36:11Z</time>
      </trkpt>
      <trkpt lat="43.22106" lon="5.46031">
        <ele>547.1</ele>
        <time>2025-10-12T09:36:32Z</time>
      </trkpt>
      <trkpt lat="43.22103" lon="5.46056">
        <ele>542.8</ele>
        <time>2025-10-12T09:36:53Z</time>
      </trkpt>
      <trkpt lat="43.22096" lon="5.46083">
        <ele>538.6</ele>
        <time>2025-10-12T09:37:14Z</time>
      </trkpt>
      <trkpt lat="43.22084" lon="5.46106">
        <ele>533.9</ele>
        <time>2025-10-12T09:37:35Z</time>
      </trkpt>
      <trkpt lat="43.22074" lon="5.46132">
        <ele>529.8</ele>
        <time>2025-10-12T09:37:56Z</time>
      </trkpt>
      <trkpt lat="43.22062" lon="5.46156">
        <ele>527.5</ele>
        <time>2025-10-12T09:38:17Z</time>
      </trkpt>
      <trkpt lat="43.22052" lon="5.46176">
        <ele>526.9</ele>
        <time>2025-10-12T09:38:38Z</time>
      </trkpt>
      <trkpt lat="43.22047" lon="5.46197">
        <ele>527.1</ele>
        <time>2025-10-12T09:38:59Z</time>
      </trkpt>
      <trkpt lat="43.22047" lon="5.46202">
        <ele>527.1</ele>
        <time>2025-10-12T09:39:20Z</time>
      </trkpt>
      <trkpt lat="43.22046" lon="5.46238">
        <ele>527.2</ele>
        <time>2025-10-12T09:39:41Z</time>
      </trkpt>
      <trkpt lat="43.22044" lon="5.46269">
        <ele>527.6</ele>
        <time>2025-10-12T09:40:02Z</time>
      </trkpt>
      <trkpt lat="43.22039" lon="5.46298">
        <ele>528.2</ele>
        <time>2025-10-12T09:40:23Z</time>
      </trkpt>
      <trkpt lat="43.2203" lon="5.4633">
        <ele>528.1</ele>
        <time>2025-10-12T09:40:44Z</time>
      </trkpt>
      <trkpt lat="43.22026" lon="5.46364">
        <ele>526.5</ele>
        <time>2025-10-12T09:41:05Z</time>
      </trkpt>
      <trkpt lat="43.22022" lon="5.46387">
        <ele>529.9</ele>
        <time>2025-10-12T09:41:26Z</time>
      </trkpt>
      <trkpt lat="43.22027" lon="5.46414">
        <ele>529.7</ele>
        <time>2025-10-12T09:41:47Z</time>
      </trkpt>
      <trkpt lat="43.22037" lon="5.46439">
        <ele>527.1</ele>
        <time>2025-10-12T09:42:08Z</time>
      </trkpt>
      <trkpt lat="43.22048" lon="5.46458">
        <ele>527</ele>
        <time>2025-10-12T09:42:29Z</time>
      </trkpt>
      <trkpt lat="43.22045" lon="5.46462">
        <ele>527.8</ele>
        <time>2025-10-12T09:42:50Z</time>
      </trkpt>
      <trkpt lat="43.22043" lon="5.46463">
        <ele>527.8</ele>
        <time>2025-10-12T09:43:11Z</time>
      </trkpt>
      <trkpt lat="43.22042" lon="5.46462">
        <ele>527.8</ele>
        <time>2025-10-12T09:43:32Z</time>
      </trkpt>
      <trkpt lat="43.22039" lon="5.46464">
        <ele>527.4</ele>
        <time>2025-10-12T09:43:53Z</time>
      </trkpt>
      <trkpt lat="43.2202" lon="5.46478">
        <ele>527</ele>
        <time>2025-10-12T09:44:14Z</time>
      </trkpt>
      <trkpt lat="43.21997" lon="5.46473">
        <ele>527</ele>
        <time>2025-10-12T09:44:35Z</time>
      </trkpt>
      <trkpt lat="43.21986" lon="5.46474">
        <ele>527.9</ele>
        <time>2025-10-12T09:44:56Z</time>
      </trkpt>
      <trkpt lat="43.21986" lon="5.46474">
        <ele>528.1</ele>
        <time>2025-10-12T09:45:17Z</time>
      </trkpt>
      <trkpt lat="43.21981" lon="5.46485">
        <ele>527.2</ele>
        <time>2025-10-12T09:45:38Z</time>
      </trkpt>
      <trkpt lat="43.21972" lon="5.46496">
        <ele>523.5</ele>
        <time>2025-10-12T09:45:59Z</time>
      </trkpt>
      <trkpt lat="43.21954" lon="5.4649">
        <ele>522.1</ele>
        <time>2025-10-12T09:46:20Z</time>
      </trkpt>
      <trkpt lat="43.21936" lon="5.46488">
        <ele>520</ele>
        <time>2025-10-12T09:46:41Z</time>
      </trkpt>
      <trkpt lat="43.21916" lon="5.46487">
        <ele>519.2</ele>
        <time>2025-10-12T09:47:02Z</time>
      </trkpt>
      <trkpt lat="43.21898" lon="5.46481">
        <ele>517.1</ele>
        <time>2025-10-12T09:47:23Z</time>
      </trkpt>
      <trkpt lat="43.21878" lon="5.46476">
        <ele>514.6</ele>
        <time>2025-10-12T09:47:44Z</time>
      </trkpt>
      <trkpt lat="43.21864" lon="5.46473">
        <ele>513.3</ele>
        <time>2025-10-12T09:48:05Z</time>
      </trkpt>
      <trkpt lat="43.21852" lon="5.46471">
        <ele>512.4</ele>
        <time>2025-10-12T09:48:26Z</time>
      </trkpt>
      <trkpt lat="43.2183" lon="5.46471">
        <ele>510.6</ele>
        <time>2025-10-12T09:48:47Z</time>
      </trkpt>
      <trkpt lat="43.21815" lon="5.46479">
        <ele>507.6</ele>
        <time>2025-10-12T09:49:08Z</time>
      </trkpt>
      <trkpt lat="43.21805" lon="5.46492">
        <ele>506.1</ele>
        <time>2025-10-12T09:49:29Z</time>
      </trkpt>
      <trkpt lat="43.21784" lon="5.46499">
        <ele>504.7</ele>
        <time>2025-10-12T09:49:50Z</time>
      </trkpt>
      <trkpt lat="43.21767" lon="5.46512">
        <ele>501.9</ele>
        <time>2025-10-12T09:50:11Z</time>
      </trkpt>
      <trkpt lat="43.21743" lon="5.46517">
        <ele>499.1</ele>
        <time>2025-10-12T09:50:32Z</time>
      </trkpt>
      <trkpt lat="43.21722" lon="5.46528">
        <ele>498.2</ele>
        <time>2025-10-12T09:50:53Z</time>
      </trkpt>
      <trkpt lat="43.21705" lon="5.46533">
        <ele>494.8</ele>
        <time>2025-10-12T09:51:14Z</time>
      </trkpt>
      <trkpt lat="43.217" lon="5.46535">
        <ele>492.7</ele>
        <time>2025-10-12T09:51:35Z</time>
      </trkpt>
      <trkpt lat="43.21695" lon="5.46538">
        <ele>491.2</ele>
        <time>2025-10-12T09:51:56Z</time>
      </trkpt>
      <trkpt lat="43.21687" lon="5.46545">
        <ele>488.3</ele>
        <time>2025-10-12T09:52:17Z</time>
      </trkpt>
      <trkpt lat="43.21673" lon="5.46556">
        <ele>485</ele>
        <time>2025-10-12T09:52:38Z</time>
      </trkpt>
      <trkpt lat="43.21661" lon="5.46563">
        <ele>482.3</ele>
        <time>2025-10-12T09:52:59Z</time>
      </trkpt>
      <trkpt lat="43.2165" lon="5.4657">
        <ele>480.3</ele>
        <time>2025-10-12T09:53:20Z</time>
      </trkpt>
      <trkpt lat="43.21635" lon="5.46583">
        <ele>476.8</ele>
        <time>2025-10-12T09:53:41Z</time>
      </trkpt>
      <trkpt lat="43.2162" lon="5.46584">
        <ele>475.5</ele>
        <time>2025-10-12T09:54:02Z</time>
      </trkpt>
      <trkpt lat="43.21608" lon="5.46596">
        <ele>475.7</ele>
        <time>2025-10-12T09:54:23Z</time>
      </trkpt>
      <trkpt lat="43.21595" lon="5.466">
        <ele>474.1</ele>
        <time>2025-10-12T09:54:44Z</time>
      </trkpt>
      <trkpt lat="43.21589" lon="5.46595">
        <ele>470</ele>
        <time>2025-10-12T09:55:05Z</time>
      </trkpt>
      <trkpt lat="43.21582" lon="5.46593">
        <ele>466.1</ele>
        <time>2025-10-12T09:55:26Z</time>
      </trkpt>
      <trkpt lat="43.21576" lon="5.46595">
        <ele>463</ele>
        <time>2025-10-12T09:55:47Z</time>
      </trkpt>
      <trkpt lat="43.21572" lon="5.46589">
        <ele>464.3</ele>
        <time>2025-10-12T09:56:08Z</time>
      </trkpt>
      <trkpt lat="43.2157" lon="5.46586">
        <ele>464</ele>
        <time>2025-10-12T09:56:29Z</time>
      </trkpt>
      <trkpt lat="43.21561" lon="5.46583">
        <ele>462.7</ele>
        <time>2025-10-12T09:56:50Z</time>
      </trkpt>
      <trkpt lat="43.21558" lon="5.46581">
        <ele>460.2</ele>
        <time>2025-10-12T09:57:11Z</time>
      </trkpt>
      <trkpt lat="43.21549" lon="5.46581">
        <ele>458.8</ele>
        <time>2025-10-12T09:57:32Z</time>
      </trkpt>
      <trkpt lat="43.21539" lon="5.46585">
        <ele>453</ele>
        <time>2025-10-12T09:57:53Z</time>
      </trkpt>
      <trkpt lat="43.21525" lon="5.46586">
        <ele>443.7</ele>
        <time>2025-10-12T09:58:14Z</time>
      </trkpt>
      <trkpt lat="43.21514" lon="5.46586">
        <ele>440</ele>
        <time>2025-10-12T09:58:35Z</time>
      </trkpt>
      <trkpt lat="43.21498" lon="5.46601">
        <ele>434.6</ele>
        <time>2025-10-12T09:58:56Z</time>
      </trkpt>
      <trkpt lat="43.21483" lon="5.46609">
        <ele>433</ele>
        <time>2025-10-12T09:59:17Z</time>
      </trkpt>
      <trkpt lat="43.21473" lon="5.46609">
        <ele>432.1</ele>
        <time>2025-10-12T09:59:38Z</time>
      </trkpt>
      <trkpt lat="43.21458" lon="5.46606">
        <ele>431.5</ele>
        <time>2025-10-12T09:59:59Z</time>
      </trkpt>
      <trkpt lat="43.21441" lon="5.46611">
        <ele>428.2</ele>
        <time>2025-10-12T10:00:20Z</time>
      </trkpt>
      <trkpt lat="43.21422" lon="5.46613">
        <ele>426.7</ele>
        <time>2025-10-12T10:00:41Z</time>
      </trkpt>
      <trkpt lat="43.21413" lon="5.46611">
        <ele>428.1</ele>
        <time>2025-10-12T10:01:02Z</time>
      </trkpt>
      <trkpt lat="43.2141" lon="5.46614">
        <ele>430.1</ele>
        <time>2025-10-12T10:01:23Z</time>
      </trkpt>
      <trkpt lat="43.2141" lon="5.46614">
        <ele>430.2</ele>
        <time>2025-10-12T10:01:44Z</time>
      </trkpt>
      <trkpt lat="43.2141" lon="5.46614">
        <ele>430.6</ele>
        <time>2025-10-12T10:02:05Z</time>
      </trkpt>
      <trkpt lat="43.21404" lon="5.46613">
        <ele>430.8</ele>
        <time>2025-10-12T10:02:26Z</time>
      </trkpt>
      <trkpt lat="43.21383" lon="5.46621">
        <ele>428.8</ele>
        <time>2025-10-12T10:02:47Z</time>
      </trkpt>
      <trkpt lat="43.21365" lon="5.46621">
        <ele>426.1</ele>
        <time>2025-10-12T10:03:08Z</time>
      </trkpt>
      <trkpt lat="43.21363" lon="5.46621">
        <ele>426.6</ele>
        <time>2025-10-12T10:05:35Z</time>
      </trkpt>
      <trkpt lat="43.21358" lon="5.4662">
        <ele>426.5</ele>
        <time>2025-10-12T10:05:56Z</time>
      </trkpt>
      <trkpt lat="43.21342" lon="5.46607">
        <ele>425.3</ele>
        <time>2025-10-12T10:06:17Z</time>
      </trkpt>
      <trkpt lat="43.21337" lon="5.46605">
        <ele>424.6</ele>
        <time>2025-10-12T10:06:38Z</time>
      </trkpt>
      <trkpt lat="43.21337" lon="5.46605">
        <ele>424.7</ele>
        <time>2025-10-12T10:06:59Z</time>
      </trkpt>
      <trkpt lat="43.21337" lon="5.46605">
        <ele>424.7</ele>
        <time>2025-10-12T10:07:20Z</time>
      </trkpt>
      <trkpt lat="43.21337" lon="5.46605">
        <ele>424.8</ele>
        <time>2025-10-12T10:07:41Z</time>
      </trkpt>
      <trkpt lat="43.21334" lon="5.46607">
        <ele>424</ele>
        <time>2025-10-12T10:08:02Z</time>
      </trkpt>
      <trkpt lat="43.21332" lon="5.46608">
        <ele>424.9</ele>
        <time>2025-10-12T10:09:05Z</time>
      </trkpt>
      <trkpt lat="43.21323" lon="5.46616">
        <ele>422.4</ele>
        <time>2025-10-12T10:09:26Z</time>
      </trkpt>
      <trkpt lat="43.21313" lon="5.46608">
        <ele>424.7</ele>
        <time>2025-10-12T10:09:47Z</time>
      </trkpt>
      <trkpt lat="43.21306" lon="5.46602">
        <ele>425.7</ele>
        <time>2025-10-12T10:10:29Z</time>
      </trkpt>
      <trkpt lat="43.21309" lon="5.46589">
        <ele>427.5</ele>
        <time>2025-10-12T10:10:50Z</time>
      </trkpt>
      <trkpt lat="43.21314" lon="5.46586">
        <ele>424.7</ele>
        <time>2025-10-12T10:11:11Z</time>
      </trkpt>
      <trkpt lat="43.21329" lon="5.46581">
        <ele>426.4</ele>
        <time>2025-10-12T10:11:32Z</time>
      </trkpt>
      <trkpt lat="43.21342" lon="5.46563">
        <ele>426.4</ele>
        <time>2025-10-12T10:11:53Z</time>
      </trkpt>
      <trkpt lat="43.21342" lon="5.46563">
        <ele>425.6</ele>
        <time>2025-10-12T10:12:14Z</time>
      </trkpt>
      <trkpt lat="43.21342" lon="5.46562">
        <ele>424.8</ele>
        <time>2025-10-12T10:12:35Z</time>
      </trkpt>
      <trkpt lat="43.2135" lon="5.46537">
        <ele>422</ele>
        <time>2025-10-12T10:12:56Z</time>
      </trkpt>
      <trkpt lat="43.21365" lon="5.46526">
        <ele>419.7</ele>
        <time>2025-10-12T10:13:17Z</time>
      </trkpt>
      <trkpt lat="43.21366" lon="5.46527">
        <ele>418.9</ele>
        <time>2025-10-12T10:13:38Z</time>
      </trkpt>
      <trkpt lat="43.21367" lon="5.46527">
        <ele>418.1</ele>
        <time>2025-10-12T10:13:59Z</time>
      </trkpt>
      <trkpt lat="43.21367" lon="5.46528">
        <ele>417.4</ele>
        <time>2025-10-12T10:14:20Z</time>
      </trkpt>
      <trkpt lat="43.21373" lon="5.46533">
        <ele>414.2</ele>
        <time>2025-10-12T10:14:41Z</time>
      </trkpt>
      <trkpt lat="43.21376" lon="5.46526">
        <ele>411</ele>
        <time>2025-10-12T10:15:02Z</time>
      </trkpt>
      <trkpt lat="43.21382" lon="5.46519">
        <ele>408.3</ele>
        <time>2025-10-12T10:15:23Z</time>
      </trkpt>
      <trkpt lat="43.21398" lon="5.46519">
        <ele>405.4</ele>
        <time>2025-10-12T10:15:44Z</time>
      </trkpt>
      <trkpt lat="43.21414" lon="5.46517">
        <ele>403.9</ele>
        <time>2025-10-12T10:16:05Z</time>
      </trkpt>
      <trkpt lat="43.21426" lon="5.46511">
        <ele>400.3</ele>
        <time>2025-10-12T10:16:26Z</time>
      </trkpt>
      <trkpt lat="43.21428" lon="5.46504">
        <ele>397.2</ele>
        <time>2025-10-12T10:16:47Z</time>
      </trkpt>
      <trkpt lat="43.21429" lon="5.46501">
        <ele>394.6</ele>
        <time>2025-10-12T10:17:08Z</time>
      </trkpt>
      <trkpt lat="43.21428" lon="5.46498">
        <ele>393.3</ele>
        <time>2025-10-12T10:17:29Z</time>
      </trkpt>
      <trkpt lat="43.21434" lon="5.46484">
        <ele>389.6</ele>
        <time>2025-10-12T10:17:50Z</time>
      </trkpt>
      <trkpt lat="43.21456" lon="5.46473">
        <ele>389.7</ele>
        <time>2025-10-12T10:18:11Z</time>
      </trkpt>
      <trkpt lat="43.21469" lon="5.46458">
        <ele>387.6</ele>
        <time>2025-10-12T10:18:32Z</time>
      </trkpt>
      <trkpt lat="43.21467" lon="5.46441">
        <ele>384.2</ele>
        <time>2025-10-12T10:18:53Z</time>
      </trkpt>
      <trkpt lat="43.21454" lon="5.46432">
        <ele>378.9</ele>
        <time>2025-10-12T10:19:14Z</time>
      </trkpt>
      <trkpt lat="43.21445" lon="5.46411">
        <ele>376.7</ele>
        <time>2025-10-12T10:19:35Z</time>
      </trkpt>
      <trkpt lat="43.21452" lon="5.46381">
        <ele>378</ele>
        <time>2025-10-12T10:19:56Z</time>
      </trkpt>
      <trkpt lat="43.21461" lon="5.46356">
        <ele>375.3</ele>
        <time>2025-10-12T10:20:17Z</time>
      </trkpt>
      <trkpt lat="43.21472" lon="5.46332">
        <ele>372.7</ele>
        <time>2025-10-12T10:20:38Z</time>
      </trkpt>
      <trkpt lat="43.21453" lon="5.46317">
        <ele>367.7</ele>
        <time>2025-10-12T10:20:59Z</time>
      </trkpt>
      <trkpt lat="43.21444" lon="5.46293">
        <ele>366.3</ele>
        <time>2025-10-12T10:21:20Z</time>
      </trkpt>
      <trkpt lat="43.21441" lon="5.46267">
        <ele>364.6</ele>
        <time>2025-10-12T10:21:41Z</time>
      </trkpt>
      <trkpt lat="43.21442" lon="5.46236">
        <ele>360.6</ele>
        <time>2025-10-12T10:22:02Z</time>
      </trkpt>
      <trkpt lat="43.21446" lon="5.46208">
        <ele>360.6</ele>
        <time>2025-10-12T10:22:23Z</time>
      </trkpt>
      <trkpt lat="43.21454" lon="5.46194">
        <ele>361.6</ele>
        <time>2025-10-12T10:22:44Z</time>
      </trkpt>
      <trkpt lat="43.2147" lon="5.46183">
        <ele>365.3</ele>
        <time>2025-10-12T10:23:05Z</time>
      </trkpt>
      <trkpt lat="43.21491" lon="5.46173">
        <ele>367.1</ele>
        <time>2025-10-12T10:23:26Z</time>
      </trkpt>
      <trkpt lat="43.21506" lon="5.46162">
        <ele>371.3</ele>
        <time>2025-10-12T10:25:11Z</time>
      </trkpt>
      <trkpt lat="43.2151" lon="5.46161">
        <ele>370.2</ele>
        <time>2025-10-12T10:25:32Z</time>
      </trkpt>
      <trkpt lat="43.21517" lon="5.46157">
        <ele>369.2</ele>
        <time>2025-10-12T10:25:53Z</time>
      </trkpt>
      <trkpt lat="43.21524" lon="5.46133">
        <ele>367.5</ele>
        <time>2025-10-12T10:26:14Z</time>
      </trkpt>
      <trkpt lat="43.21531" lon="5.4611">
        <ele>367.9</ele>
        <time>2025-10-12T10:26:35Z</time>
      </trkpt>
      <trkpt lat="43.21527" lon="5.46094">
        <ele>365.5</ele>
        <time>2025-10-12T10:26:56Z</time>
      </trkpt>
      <trkpt lat="43.21532" lon="5.46071">
        <ele>367</ele>
        <time>2025-10-12T10:27:17Z</time>
      </trkpt>
      <trkpt lat="43.21536" lon="5.46047">
        <ele>366.7</ele>
        <time>2025-10-12T10:27:38Z</time>
      </trkpt>
      <trkpt lat="43.21537" lon="5.4605">
        <ele>365.9</ele>
        <time>2025-10-12T10:27:59Z</time>
      </trkpt>
      <trkpt lat="43.21546" lon="5.46049">
        <ele>365.3</ele>
        <time>2025-10-12T10:28:20Z</time>
      </trkpt>
      <trkpt lat="43.21567" lon="5.46058">
        <ele>367.1</ele>
        <time>2025-10-12T10:28:41Z</time>
      </trkpt>
      <trkpt lat="43.21582" lon="5.46062">
        <ele>368.9</ele>
        <time>2025-10-12T10:29:02Z</time>
      </trkpt>
      <trkpt lat="43.21596" lon="5.46066">
        <ele>367.6</ele>
        <time>2025-10-12T10:29:23Z</time>
      </trkpt>
      <trkpt lat="43.21614" lon="5.46055">
        <ele>368.1</ele>
        <time>2025-10-12T10:29:44Z</time>
      </trkpt>
      <trkpt lat="43.21632" lon="5.4605">
        <ele>367.5</ele>
        <time>2025-10-12T10:30:05Z</time>
      </trkpt>
      <trkpt lat="43.21652" lon="5.46061">
        <ele>364.2</ele>
        <time>2025-10-12T10:30:26Z</time>
      </trkpt>
      <trkpt lat="43.21672" lon="5.46063">
        <ele>362.7</ele>
        <time>2025-10-12T10:30:47Z</time>
      </trkpt>
      <trkpt lat="43.21693" lon="5.46049">
        <ele>364.4</ele>
        <time>2025-10-12T10:31:08Z</time>
      </trkpt>
      <trkpt lat="43.21708" lon="5.46031">
        <ele>370</ele>
        <time>2025-10-12T10:31:29Z</time>
      </trkpt>
      <trkpt lat="43.21691" lon="5.46006">
        <ele>373.9</ele>
        <time>2025-10-12T10:31:50Z</time>
      </trkpt>
      <trkpt lat="43.21682" lon="5.45986">
        <ele>376.9</ele>
        <time>2025-10-12T10:32:11Z</time>
      </trkpt>
      <trkpt lat="43.21683" lon="5.45958">
        <ele>379.4</ele>
        <time>2025-10-12T10:32:32Z</time>
      </trkpt>
      <trkpt lat="43.21682" lon="5.45935">
        <ele>381</ele>
        <time>2025-10-12T10:32:53Z</time>
      </trkpt>
      <trkpt lat="43.21693" lon="5.45909">
        <ele>381.1</ele>
        <time>2025-10-12T10:33:14Z</time>
      </trkpt>
      <trkpt lat="43.21701" lon="5.45891">
        <ele>377.9</ele>
        <time>2025-10-12T10:33:35Z</time>
      </trkpt>
      <trkpt lat="43.21723" lon="5.45888">
        <ele>379.2</ele>
        <time>2025-10-12T10:33:56Z</time>
      </trkpt>
      <trkpt lat="43.21743" lon="5.45886">
        <ele>381.5</ele>
        <time>2025-10-12T10:34:17Z</time>
      </trkpt>
      <trkpt lat="43.21758" lon="5.45873">
        <ele>385.6</ele>
        <time>2025-10-12T10:34:38Z</time>
      </trkpt>
      <trkpt lat="43.21777" lon="5.45877">
        <ele>385.1</ele>
        <time>2025-10-12T10:34:59Z</time>
      </trkpt>
      <trkpt lat="43.21789" lon="5.45871">
        <ele>387.2</ele>
        <time>2025-10-12T10:35:20Z</time>
      </trkpt>
      <trkpt lat="43.21797" lon="5.45857">
        <ele>391</ele>
        <time>2025-10-12T10:35:41Z</time>
      </trkpt>
      <trkpt lat="43.21792" lon="5.45849">
        <ele>396.5</ele>
        <time>2025-10-12T10:36:02Z</time>
      </trkpt>
      <trkpt lat="43.21789" lon="5.45835">
        <ele>397.7</ele>
        <time>2025-10-12T10:36:23Z</time>
      </trkpt>
      <trkpt lat="43.21791" lon="5.45817">
        <ele>400.8</ele>
        <time>2025-10-12T10:36:44Z</time>
      </trkpt>
      <trkpt lat="43.21803" lon="5.4581">
        <ele>397.8</ele>
        <time>2025-10-12T10:37:05Z</time>
      </trkpt>
      <trkpt lat="43.21816" lon="5.45806">
        <ele>399.7</ele>
        <time>2025-10-12T10:37:26Z</time>
      </trkpt>
      <trkpt lat="43.21819" lon="5.45803">
        <ele>400.8</ele>
        <time>2025-10-12T10:37:47Z</time>
      </trkpt>
      <trkpt lat="43.21819" lon="5.458">
        <ele>400.3</ele>
        <time>2025-10-12T10:38:08Z</time>
      </trkpt>
      <trkpt lat="43.21815" lon="5.45802">
        <ele>400.2</ele>
        <time>2025-10-12T10:38:29Z</time>
      </trkpt>
      <trkpt lat="43.21816" lon="5.45798">
        <ele>398.8</ele>
        <time>2025-10-12T10:38:50Z</time>
      </trkpt>
      <trkpt lat="43.21818" lon="5.45794">
        <ele>398.7</ele>
        <time>2025-10-12T10:39:11Z</time>
      </trkpt>
      <trkpt lat="43.21816" lon="5.45796">
        <ele>397.6</ele>
        <time>2025-10-12T10:39:32Z</time>
      </trkpt>
      <trkpt lat="43.21813" lon="5.45797">
        <ele>397</ele>
        <time>2025-10-12T10:39:53Z</time>
      </trkpt>
      <trkpt lat="43.2181" lon="5.45795">
        <ele>395</ele>
        <time>2025-10-12T10:40:14Z</time>
      </trkpt>
      <trkpt lat="43.21813" lon="5.45787">
        <ele>393.8</ele>
        <time>2025-10-12T10:40:35Z</time>
      </trkpt>
      <trkpt lat="43.21811" lon="5.45785">
        <ele>391.3</ele>
        <time>2025-10-12T10:40:56Z</time>
      </trkpt>
      <trkpt lat="43.21811" lon="5.45785">
        <ele>391.3</ele>
        <time>2025-10-12T10:41:17Z</time>
      </trkpt>
      <trkpt lat="43.21811" lon="5.45785">
        <ele>391.3</ele>
        <time>2025-10-12T10:41:38Z</time>
      </trkpt>
      <trkpt lat="43.21811" lon="5.45785">
        <ele>391.4</ele>
        <time>2025-10-12T10:41:59Z</time>
      </trkpt>
      <trkpt lat="43.21811" lon="5.45786">
        <ele>391.5</ele>
        <time>2025-10-12T10:42:20Z</time>
      </trkpt>
      <trkpt lat="43.21803" lon="5.4579">
        <ele>387</ele>
        <time>2025-10-12T10:42:41Z</time>
      </trkpt>
      <trkpt lat="43.21796" lon="5.45783">
        <ele>382.5</ele>
        <time>2025-10-12T10:43:02Z</time>
      </trkpt>
      <trkpt lat="43.2179" lon="5.45784">
        <ele>379.7</ele>
        <time>2025-10-12T10:43:23Z</time>
      </trkpt>
      <trkpt lat="43.21786" lon="5.45769">
        <ele>373.8</ele>
        <time>2025-10-12T10:43:44Z</time>
      </trkpt>
      <trkpt lat="43.21784" lon="5.45767">
        <ele>371.7</ele>
        <time>2025-10-12T10:44:05Z</time>
      </trkpt>
      <trkpt lat="43.21783" lon="5.45768">
        <ele>370.7</ele>
        <time>2025-10-12T10:44:26Z</time>
      </trkpt>
      <trkpt lat="43.21781" lon="5.45765">
        <ele>369.9</ele>
        <time>2025-10-12T10:44:47Z</time>
      </trkpt>
      <trkpt lat="43.21774" lon="5.45774">
        <ele>365.2</ele>
        <time>2025-10-12T10:45:08Z</time>
      </trkpt>
      <trkpt lat="43.21767" lon="5.45775">
        <ele>359.9</ele>
        <time>2025-10-12T10:45:29Z</time>
      </trkpt>
      <trkpt lat="43.21759" lon="5.45778">
        <ele>355.5</ele>
        <time>2025-10-12T10:45:50Z</time>
      </trkpt>
      <trkpt lat="43.21752" lon="5.45784">
        <ele>352.2</ele>
        <time>2025-10-12T10:46:11Z</time>
      </trkpt>
      <trkpt lat="43.21745" lon="5.45781">
        <ele>348.3</ele>
        <time>2025-10-12T10:46:32Z</time>
      </trkpt>
      <trkpt lat="43.2174" lon="5.45782">
        <ele>345.4</ele>
        <time>2025-10-12T10:46:53Z</time>
      </trkpt>
      <trkpt lat="43.21735" lon="5.4578">
        <ele>342.1</ele>
        <time>2025-10-12T10:47:14Z</time>
      </trkpt>
      <trkpt lat="43.21727" lon="5.45785">
        <ele>337.3</ele>
        <time>2025-10-12T10:47:35Z</time>
      </trkpt>
      <trkpt lat="43.21722" lon="5.45781">
        <ele>332.7</ele>
        <time>2025-10-12T10:47:56Z</time>
      </trkpt>
      <trkpt lat="43.21717" lon="5.45779">
        <ele>330.8</ele>
        <time>2025-10-12T10:48:17Z</time>
      </trkpt>
      <trkpt lat="43.21716" lon="5.45773">
        <ele>328.3</ele>
        <time>2025-10-12T10:48:38Z</time>
      </trkpt>
      <trkpt lat="43.21717" lon="5.45765">
        <ele>323.1</ele>
        <time>2025-10-12T10:48:59Z</time>
      </trkpt>
      <trkpt lat="43.21709" lon="5.45751">
        <ele>320.1</ele>
        <time>2025-10-12T10:49:20Z</time>
      </trkpt>
      <trkpt lat="43.21699" lon="5.45731">
        <ele>314.6</ele>
        <time>2025-10-12T10:49:41Z</time>
      </trkpt>
      <trkpt lat="43.21683" lon="5.45709">
        <ele>311.9</ele>
        <time>2025-10-12T10:50:02Z</time>
      </trkpt>
      <trkpt lat="43.21666" lon="5.45687">
        <ele>306.7</ele>
        <time>2025-10-12T10:50:23Z</time>
      </trkpt>
      <trkpt lat="43.21652" lon="5.45661">
        <ele>303.4</ele>
        <time>2025-10-12T10:50:44Z</time>
      </trkpt>
      <trkpt lat="43.21647" lon="5.45631">
        <ele>301</ele>
        <time>2025-10-12T10:51:05Z</time>
      </trkpt>
      <trkpt lat="43.21641" lon="5.456">
        <ele>298.6</ele>
        <time>2025-10-12T10:51:26Z</time>
      </trkpt>
      <trkpt lat="43.21635" lon="5.45576">
        <ele>295.4</ele>
        <time>2025-10-12T10:51:47Z</time>
      </trkpt>
      <trkpt lat="43.21631" lon="5.45563">
        <ele>293.4</ele>
        <time>2025-10-12T10:52:08Z</time>
      </trkpt>
      <trkpt lat="43.21623" lon="5.45537">
        <ele>290.3</ele>
        <time>2025-10-12T10:52:29Z</time>
      </trkpt>
      <trkpt lat="43.21619" lon="5.45506">
        <ele>288.8</ele>
        <time>2025-10-12T10:52:50Z</time>
      </trkpt>
      <trkpt lat="43.21615" lon="5.45481">
        <ele>286.5</ele>
        <time>2025-10-12T10:53:11Z</time>
      </trkpt>
      <trkpt lat="43.21606" lon="5.45472">
        <ele>283.8</ele>
        <time>2025-10-12T10:53:32Z</time>
      </trkpt>
      <trkpt lat="43.21606" lon="5.45465">
        <ele>284.5</ele>
        <time>2025-10-12T10:53:53Z</time>
      </trkpt>
      <trkpt lat="43.21615" lon="5.45455">
        <ele>287.4</ele>
        <time>2025-10-12T10:54:14Z</time>
      </trkpt>
      <trkpt lat="43.21627" lon="5.4544">
        <ele>291</ele>
        <time>2025-10-12T10:54:35Z</time>
      </trkpt>
      <trkpt lat="43.21642" lon="5.45422">
        <ele>294</ele>
        <time>2025-10-12T10:54:56Z</time>
      </trkpt>
      <trkpt lat="43.21653" lon="5.45405">
        <ele>293.5</ele>
        <time>2025-10-12T10:55:17Z</time>
      </trkpt>
      <trkpt lat="43.21653" lon="5.45383">
        <ele>292.6</ele>
        <time>2025-10-12T11:03:41Z</time>
      </trkpt>
      <trkpt lat="43.21655" lon="5.45393">
        <ele>294.3</ele>
        <time>2025-10-12T11:37:17Z</time>
      </trkpt>
      <trkpt lat="43.21668" lon="5.45395">
        <ele>294.7</ele>
        <time>2025-10-12T11:37:38Z</time>
      </trkpt>
      <trkpt lat="43.21679" lon="5.45402">
        <ele>297.3</ele>
        <time>2025-10-12T11:37:59Z</time>
      </trkpt>
      <trkpt lat="43.21693" lon="5.45402">
        <ele>300.2</ele>
        <time>2025-10-12T11:38:20Z</time>
      </trkpt>
      <trkpt lat="43.21706" lon="5.45399">
        <ele>302.6</ele>
        <time>2025-10-12T11:38:41Z</time>
      </trkpt>
      <trkpt lat="43.21719" lon="5.45397">
        <ele>303.2</ele>
        <time>2025-10-12T11:39:02Z</time>
      </trkpt>
      <trkpt lat="43.21736" lon="5.45403">
        <ele>305.6</ele>
        <time>2025-10-12T11:39:23Z</time>
      </trkpt>
      <trkpt lat="43.21752" lon="5.45409">
        <ele>307.6</ele>
        <time>2025-10-12T11:39:44Z</time>
      </trkpt>
      <trkpt lat="43.21772" lon="5.45412">
        <ele>309.1</ele>
        <time>2025-10-12T11:40:05Z</time>
      </trkpt>
      <trkpt lat="43.21791" lon="5.45414">
        <ele>310.4</ele>
        <time>2025-10-12T11:40:26Z</time>
      </trkpt>
      <trkpt lat="43.21811" lon="5.45422">
        <ele>310</ele>
        <time>2025-10-12T11:40:47Z</time>
      </trkpt>
      <trkpt lat="43.21833" lon="5.45432">
        <ele>308.8</ele>
        <time>2025-10-12T11:41:08Z</time>
      </trkpt>
      <trkpt lat="43.21856" lon="5.45437">
        <ele>310.2</ele>
        <time>2025-10-12T11:41:29Z</time>
      </trkpt>
      <trkpt lat="43.21872" lon="5.45428">
        <ele>312.6</ele>
        <time>2025-10-12T11:41:50Z</time>
      </trkpt>
      <trkpt lat="43.2189" lon="5.45423">
        <ele>315.1</ele>
        <time>2025-10-12T11:42:11Z</time>
      </trkpt>
      <trkpt lat="43.21909" lon="5.45423">
        <ele>316.8</ele>
        <time>2025-10-12T11:42:32Z</time>
      </trkpt>
      <trkpt lat="43.21927" lon="5.45413">
        <ele>319.2</ele>
        <time>2025-10-12T11:42:53Z</time>
      </trkpt>
      <trkpt lat="43.21945" lon="5.45404">
        <ele>321.5</ele>
        <time>2025-10-12T11:43:14Z</time>
      </trkpt>
      <trkpt lat="43.21958" lon="5.45392">
        <ele>323.3</ele>
        <time>2025-10-12T11:43:35Z</time>
      </trkpt>
      <trkpt lat="43.21948" lon="5.4537">
        <ele>323</ele>
        <time>2025-10-12T11:43:56Z</time>
      </trkpt>
      <trkpt lat="43.21932" lon="5.45349">
        <ele>321.7</ele>
        <time>2025-10-12T11:44:17Z</time>
      </trkpt>
      <trkpt lat="43.21915" lon="5.45326">
        <ele>320.6</ele>
        <time>2025-10-12T11:44:38Z</time>
      </trkpt>
      <trkpt lat="43.21901" lon="5.45299">
        <ele>319.6</ele>
        <time>2025-10-12T11:44:59Z</time>
      </trkpt>
      <trkpt lat="43.2189" lon="5.45268">
        <ele>318.7</ele>
        <time>2025-10-12T11:45:20Z</time>
      </trkpt>
      <trkpt lat="43.21882" lon="5.45237">
        <ele>317.3</ele>
        <time>2025-10-12T11:45:41Z</time>
      </trkpt>
      <trkpt lat="43.21887" lon="5.45217">
        <ele>316.9</ele>
        <time>2025-10-12T11:46:02Z</time>
      </trkpt>
      <trkpt lat="43.21897" lon="5.45212">
        <ele>317.6</ele>
        <time>2025-10-12T11:46:23Z</time>
      </trkpt>
      <trkpt lat="43.21915" lon="5.452">
        <ele>318.4</ele>
        <time>2025-10-12T11:46:44Z</time>
      </trkpt>
      <trkpt lat="43.21935" lon="5.45192">
        <ele>319.8</ele>
        <time>2025-10-12T11:47:05Z</time>
      </trkpt>
      <trkpt lat="43.21955" lon="5.45182">
        <ele>321.8</ele>
        <time>2025-10-12T11:47:26Z</time>
      </trkpt>
      <trkpt lat="43.21972" lon="5.45168">
        <ele>324</ele>
        <time>2025-10-12T11:47:47Z</time>
      </trkpt>
      <trkpt lat="43.2199" lon="5.45159">
        <ele>326.1</ele>
        <time>2025-10-12T11:48:08Z</time>
      </trkpt>
      <trkpt lat="43.22009" lon="5.4515">
        <ele>327.9</ele>
        <time>2025-10-12T11:48:29Z</time>
      </trkpt>
      <trkpt lat="43.22029" lon="5.45141">
        <ele>330.6</ele>
        <time>2025-10-12T11:48:50Z</time>
      </trkpt>
      <trkpt lat="43.22049" lon="5.45135">
        <ele>332.5</ele>
        <time>2025-10-12T11:49:11Z</time>
      </trkpt>
      <trkpt lat="43.22068" lon="5.45129">
        <ele>335</ele>
        <time>2025-10-12T11:49:32Z</time>
      </trkpt>
      <trkpt lat="43.22088" lon="5.45121">
        <ele>337.7</ele>
        <time>2025-10-12T11:49:53Z</time>
      </trkpt>
      <trkpt lat="43.22107" lon="5.45104">
        <ele>341.8</ele>
        <time>2025-10-12T11:50:14Z</time>
      </trkpt>
      <trkpt lat="43.22129" lon="5.45097">
        <ele>344.2</ele>
        <time>2025-10-12T11:50:35Z</time>
      </trkpt>
      <trkpt lat="43.22151" lon="5.45093">
        <ele>346.2</ele>
        <time>2025-10-12T11:50:56Z</time>
      </trkpt>
      <trkpt lat="43.22172" lon="5.45095">
        <ele>348.5</ele>
        <time>2025-10-12T11:51:17Z</time>
      </trkpt>
      <trkpt lat="43.22193" lon="5.45096">
        <ele>350.4</ele>
        <time>2025-10-12T11:51:38Z</time>
      </trkpt>
      <trkpt lat="43.22216" lon="5.451">
        <ele>351.8</ele>
        <time>2025-10-12T11:51:59Z</time>
      </trkpt>
      <trkpt lat="43.22239" lon="5.45104">
        <ele>353.6</ele>
        <time>2025-10-12T11:52:20Z</time>
      </trkpt>
      <trkpt lat="43.2226" lon="5.45098">
        <ele>355.7</ele>
        <time>2025-10-12T11:52:41Z</time>
      </trkpt>
      <trkpt lat="43.2228" lon="5.4509">
        <ele>357.6</ele>
        <time>2025-10-12T11:53:02Z</time>
      </trkpt>
      <trkpt lat="43.22302" lon="5.4509">
        <ele>359.6</ele>
        <time>2025-10-12T11:53:23Z</time>
      </trkpt>
      <trkpt lat="43.22324" lon="5.4509">
        <ele>361.2</ele>
        <time>2025-10-12T11:53:44Z</time>
      </trkpt>
      <trkpt lat="43.22345" lon="5.45084">
        <ele>364.5</ele>
        <time>2025-10-12T11:54:05Z</time>
      </trkpt>
      <trkpt lat="43.22366" lon="5.45079">
        <ele>366.5</ele>
        <time>2025-10-12T11:54:26Z</time>
      </trkpt>
      <trkpt lat="43.22386" lon="5.45082">
        <ele>369.5</ele>
        <time>2025-10-12T11:54:47Z</time>
      </trkpt>
      <trkpt lat="43.22402" lon="5.45096">
        <ele>371</ele>
        <time>2025-10-12T11:55:08Z</time>
      </trkpt>
      <trkpt lat="43.22408" lon="5.45107">
        <ele>372.7</ele>
        <time>2025-10-12T11:55:29Z</time>
      </trkpt>
      <trkpt lat="43.22421" lon="5.45126">
        <ele>373.4</ele>
        <time>2025-10-12T11:55:50Z</time>
      </trkpt>
      <trkpt lat="43.22436" lon="5.45144">
        <ele>375.9</ele>
        <time>2025-10-12T11:56:11Z</time>
      </trkpt>
      <trkpt lat="43.22448" lon="5.45158">
        <ele>378</ele>
        <time>2025-10-12T11:56:32Z</time>
      </trkpt>
      <trkpt lat="43.2247" lon="5.45159">
        <ele>380.3</ele>
        <time>2025-10-12T11:56:53Z</time>
      </trkpt>
      <trkpt lat="43.22491" lon="5.4516">
        <ele>382.7</ele>
        <time>2025-10-12T11:57:14Z</time>
      </trkpt>
      <trkpt lat="43.22513" lon="5.45167">
        <ele>384.1</ele>
        <time>2025-10-12T11:57:35Z</time>
      </trkpt>
      <trkpt lat="43.22534" lon="5.45173">
        <ele>387.1</ele>
        <time>2025-10-12T11:57:56Z</time>
      </trkpt>
      <trkpt lat="43.22548" lon="5.45189">
        <ele>387.6</ele>
        <time>2025-10-12T11:58:17Z</time>
      </trkpt>
      <trkpt lat="43.22565" lon="5.45212">
        <ele>386</ele>
        <time>2025-10-12T11:58:38Z</time>
      </trkpt>
      <trkpt lat="43.22573" lon="5.45246">
        <ele>383.7</ele>
        <time>2025-10-12T11:58:59Z</time>
      </trkpt>
      <trkpt lat="43.22564" lon="5.4528">
        <ele>381.6</ele>
        <time>2025-10-12T11:59:20Z</time>
      </trkpt>
      <trkpt lat="43.22562" lon="5.45308">
        <ele>381.4</ele>
        <time>2025-10-12T11:59:41Z</time>
      </trkpt>
      <trkpt lat="43.22562" lon="5.45308">
        <ele>381.4</ele>
        <time>2025-10-12T12:00:02Z</time>
      </trkpt>
      <trkpt lat="43.22562" lon="5.45308">
        <ele>381.4</ele>
        <time>2025-10-12T12:00:23Z</time>
      </trkpt>
      <trkpt lat="43.2256" lon="5.45322">
        <ele>381.6</ele>
        <time>2025-10-12T12:00:44Z</time>
      </trkpt>
      <trkpt lat="43.22571" lon="5.45354">
        <ele>382</ele>
        <time>2025-10-12T12:01:05Z</time>
      </trkpt>
      <trkpt lat="43.22581" lon="5.45388">
        <ele>381.4</ele>
        <time>2025-10-12T12:01:26Z</time>
      </trkpt>
      <trkpt lat="43.22603" lon="5.45412">
        <ele>381.6</ele>
        <time>2025-10-12T12:01:47Z</time>
      </trkpt>
      <trkpt lat="43.22627" lon="5.45421">
        <ele>380.1</ele>
        <time>2025-10-12T12:02:08Z</time>
      </trkpt>
      <trkpt lat="43.2265" lon="5.45445">
        <ele>381.6</ele>
        <time>2025-10-12T12:02:29Z</time>
      </trkpt>
      <trkpt lat="43.22674" lon="5.45447">
        <ele>382</ele>
        <time>2025-10-12T12:02:50Z</time>
      </trkpt>
      <trkpt lat="43.22698" lon="5.45447">
        <ele>383.8</ele>
        <time>2025-10-12T12:03:11Z</time>
      </trkpt>
      <trkpt lat="43.22715" lon="5.45471">
        <ele>383.2</ele>
        <time>2025-10-12T12:03:32Z</time>
      </trkpt>
      <trkpt lat="43.22721" lon="5.45506">
        <ele>383.5</ele>
        <time>2025-10-12T12:03:53Z</time>
      </trkpt>
      <trkpt lat="43.22739" lon="5.45523">
        <ele>385.2</ele>
        <time>2025-10-12T12:04:14Z</time>
      </trkpt>
      <trkpt lat="43.22759" lon="5.45508">
        <ele>387.9</ele>
        <time>2025-10-12T12:04:35Z</time>
      </trkpt>
      <trkpt lat="43.22779" lon="5.45497">
        <ele>392.1</ele>
        <time>2025-10-12T12:04:56Z</time>
      </trkpt>
      <trkpt lat="43.228" lon="5.45499">
        <ele>394.2</ele>
        <time>2025-10-12T12:05:17Z</time>
      </trkpt>
      <trkpt lat="43.22815" lon="5.45509">
        <ele>395.9</ele>
        <time>2025-10-12T12:05:38Z</time>
      </trkpt>
      <trkpt lat="43.22828" lon="5.45521">
        <ele>396.2</ele>
        <time>2025-10-12T12:05:59Z</time>
      </trkpt>
      <trkpt lat="43.22846" lon="5.45544">
        <ele>394.8</ele>
        <time>2025-10-12T12:06:20Z</time>
      </trkpt>
      <trkpt lat="43.2286" lon="5.45575">
        <ele>392.5</ele>
        <time>2025-10-12T12:06:41Z</time>
      </trkpt>
      <trkpt lat="43.2287" lon="5.45609">
        <ele>391.6</ele>
        <time>2025-10-12T12:07:02Z</time>
      </trkpt>
      <trkpt lat="43.22884" lon="5.4564">
        <ele>391</ele>
        <time>2025-10-12T12:07:23Z</time>
      </trkpt>
      <trkpt lat="43.22884" lon="5.45676">
        <ele>387.3</ele>
        <time>2025-10-12T12:07:44Z</time>
      </trkpt>
      <trkpt lat="43.22886" lon="5.45712">
        <ele>384.8</ele>
        <time>2025-10-12T12:08:05Z</time>
      </trkpt>
      <trkpt lat="43.22893" lon="5.45747">
        <ele>383.2</ele>
        <time>2025-10-12T12:08:26Z</time>
      </trkpt>
      <trkpt lat="43.22904" lon="5.45781">
        <ele>381.9</ele>
        <time>2025-10-12T12:08:47Z</time>
      </trkpt>
      <trkpt lat="43.22914" lon="5.45813">
        <ele>381.1</ele>
        <time>2025-10-12T12:09:08Z</time>
      </trkpt>
      <trkpt lat="43.22931" lon="5.45837">
        <ele>382</ele>
        <time>2025-10-12T12:09:29Z</time>
      </trkpt>
      <trkpt lat="43.2293" lon="5.45871">
        <ele>377.3</ele>
        <time>2025-10-12T12:09:50Z</time>
      </trkpt>
      <trkpt lat="43.22914" lon="5.459">
        <ele>376.3</ele>
        <time>2025-10-12T12:10:11Z</time>
      </trkpt>
      <trkpt lat="43.22904" lon="5.45933">
        <ele>377.6</ele>
        <time>2025-10-12T12:10:32Z</time>
      </trkpt>
      <trkpt lat="43.22916" lon="5.45962">
        <ele>381.3</ele>
        <time>2025-10-12T12:10:53Z</time>
      </trkpt>
      <trkpt lat="43.22939" lon="5.45985">
        <ele>383.6</ele>
        <time>2025-10-12T12:11:14Z</time>
      </trkpt>
      <trkpt lat="43.22959" lon="5.46009">
        <ele>380.5</ele>
        <time>2025-10-12T12:11:35Z</time>
      </trkpt>
      <trkpt lat="43.22976" lon="5.46037">
        <ele>377.7</ele>
        <time>2025-10-12T12:11:56Z</time>
      </trkpt>
      <trkpt lat="43.22984" lon="5.46072">
        <ele>375.9</ele>
        <time>2025-10-12T12:12:17Z</time>
      </trkpt>
      <trkpt lat="43.22994" lon="5.46104">
        <ele>373.7</ele>
        <time>2025-10-12T12:12:38Z</time>
      </trkpt>
      <trkpt lat="43.23006" lon="5.46138">
        <ele>371.6</ele>
        <time>2025-10-12T12:12:59Z</time>
      </trkpt>
      <trkpt lat="43.23021" lon="5.46168">
        <ele>371</ele>
        <time>2025-10-12T12:13:20Z</time>
      </trkpt>
      <trkpt lat="43.23025" lon="5.46202">
        <ele>368</ele>
        <time>2025-10-12T12:13:41Z</time>
      </trkpt>
      <trkpt lat="43.23025" lon="5.46238">
        <ele>364.2</ele>
        <time>2025-10-12T12:14:02Z</time>
      </trkpt>
      <trkpt lat="43.23026" lon="5.46274">
        <ele>358.8</ele>
        <time>2025-10-12T12:14:23Z</time>
      </trkpt>
      <trkpt lat="43.23025" lon="5.46307">
        <ele>353</ele>
        <time>2025-10-12T12:14:44Z</time>
      </trkpt>
      <trkpt lat="43.23025" lon="5.46307">
        <ele>352.9</ele>
        <time>2025-10-12T12:15:05Z</time>
      </trkpt>
      <trkpt lat="43.23019" lon="5.46321">
        <ele>355.9</ele>
        <time>2025-10-12T12:15:26Z</time>
      </trkpt>
      <trkpt lat="43.23009" lon="5.46351">
        <ele>353.3</ele>
        <time>2025-10-12T12:15:47Z</time>
      </trkpt>
      <trkpt lat="43.2301" lon="5.46361">
        <ele>354.1</ele>
        <time>2025-10-12T12:17:11Z</time>
      </trkpt>
      <trkpt lat="43.23016" lon="5.46352">
        <ele>356.1</ele>
        <time>2025-10-12T12:17:32Z</time>
      </trkpt>
      <trkpt lat="43.23037" lon="5.46337">
        <ele>355.4</ele>
        <time>2025-10-12T12:17:53Z</time>
      </trkpt>
      <trkpt lat="43.23057" lon="5.46318">
        <ele>356.4</ele>
        <time>2025-10-12T12:18:14Z</time>
      </trkpt>
      <trkpt lat="43.23081" lon="5.4631">
        <ele>355.9</ele>
        <time>2025-10-12T12:18:35Z</time>
      </trkpt>
      <trkpt lat="43.23101" lon="5.46316">
        <ele>357.3</ele>
        <time>2025-10-12T12:18:56Z</time>
      </trkpt>
      <trkpt lat="43.23117" lon="5.46317">
        <ele>361.3</ele>
        <time>2025-10-12T12:19:17Z</time>
      </trkpt>
      <trkpt lat="43.2313" lon="5.46322">
        <ele>364.7</ele>
        <time>2025-10-12T12:19:38Z</time>
      </trkpt>
      <trkpt lat="43.2314" lon="5.46328">
        <ele>366.8</ele>
        <time>2025-10-12T12:19:59Z</time>
      </trkpt>
      <trkpt lat="43.2314" lon="5.46342">
        <ele>368.4</ele>
        <time>2025-10-12T12:20:20Z</time>
      </trkpt>
      <trkpt lat="43.23139" lon="5.4636">
        <ele>369.6</ele>
        <time>2025-10-12T12:20:41Z</time>
      </trkpt>
      <trkpt lat="43.23142" lon="5.4638">
        <ele>371.7</ele>
        <time>2025-10-12T12:21:02Z</time>
      </trkpt>
      <trkpt lat="43.23145" lon="5.46406">
        <ele>373.6</ele>
        <time>2025-10-12T12:21:23Z</time>
      </trkpt>
      <trkpt lat="43.23157" lon="5.46444">
        <ele>381.8</ele>
        <time>2025-10-12T12:22:26Z</time>
      </trkpt>
      <trkpt lat="43.23166" lon="5.46451">
        <ele>385.8</ele>
        <time>2025-10-12T12:22:47Z</time>
      </trkpt>
      <trkpt lat="43.23176" lon="5.46452">
        <ele>386</ele>
        <time>2025-10-12T12:23:08Z</time>
      </trkpt>
      <trkpt lat="43.23192" lon="5.46454">
        <ele>383.5</ele>
        <time>2025-10-12T12:23:29Z</time>
      </trkpt>
      <trkpt lat="43.23211" lon="5.46446">
        <ele>383.4</ele>
        <time>2025-10-12T12:23:50Z</time>
      </trkpt>
      <trkpt lat="43.23228" lon="5.46434">
        <ele>386.9</ele>
        <time>2025-10-12T12:24:11Z</time>
      </trkpt>
      <trkpt lat="43.23248" lon="5.46437">
        <ele>385.9</ele>
        <time>2025-10-12T12:24:32Z</time>
      </trkpt>
      <trkpt lat="43.23265" lon="5.46435">
        <ele>391</ele>
        <time>2025-10-12T12:24:53Z</time>
      </trkpt>
      <trkpt lat="43.23283" lon="5.46434">
        <ele>395.2</ele>
        <time>2025-10-12T12:25:14Z</time>
      </trkpt>
      <trkpt lat="43.23302" lon="5.46429">
        <ele>397.2</ele>
        <time>2025-10-12T12:25:35Z</time>
      </trkpt>
      <trkpt lat="43.23319" lon="5.46432">
        <ele>396.4</ele>
        <time>2025-10-12T12:25:56Z</time>
      </trkpt>
      <trkpt lat="43.23335" lon="5.46424">
        <ele>395</ele>
        <time>2025-10-12T12:26:17Z</time>
      </trkpt>
      <trkpt lat="43.23352" lon="5.46407">
        <ele>391.9</ele>
        <time>2025-10-12T12:26:38Z</time>
      </trkpt>
      <trkpt lat="43.23368" lon="5.46387">
        <ele>393.5</ele>
        <time>2025-10-12T12:26:59Z</time>
      </trkpt>
      <trkpt lat="43.23383" lon="5.4637">
        <ele>392.2</ele>
        <time>2025-10-12T12:27:20Z</time>
      </trkpt>
      <trkpt lat="43.23402" lon="5.46351">
        <ele>391.6</ele>
        <time>2025-10-12T12:27:41Z</time>
      </trkpt>
      <trkpt lat="43.23418" lon="5.46327">
        <ele>392.3</ele>
        <time>2025-10-12T12:28:02Z</time>
      </trkpt>
      <trkpt lat="43.23435" lon="5.46302">
        <ele>393.1</ele>
        <time>2025-10-12T12:28:23Z</time>
      </trkpt>
      <trkpt lat="43.23449" lon="5.46279">
        <ele>395</ele>
        <time>2025-10-12T12:28:44Z</time>
      </trkpt>
      <trkpt lat="43.23463" lon="5.46254">
        <ele>395.2</ele>
        <time>2025-10-12T12:29:05Z</time>
      </trkpt>
      <trkpt lat="43.2348" lon="5.46234">
        <ele>396.3</ele>
        <time>2025-10-12T12:29:26Z</time>
      </trkpt>
      <trkpt lat="43.23494" lon="5.46218">
        <ele>396.2</ele>
        <time>2025-10-12T12:29:47Z</time>
      </trkpt>
      <trkpt lat="43.23509" lon="5.46204">
        <ele>395.7</ele>
        <time>2025-10-12T12:30:08Z</time>
      </trkpt>
      <trkpt lat="43.23526" lon="5.46195">
        <ele>395</ele>
        <time>2025-10-12T12:30:29Z</time>
      </trkpt>
      <trkpt lat="43.23544" lon="5.46186">
        <ele>397.6</ele>
        <time>2025-10-12T12:30:50Z</time>
      </trkpt>
      <trkpt lat="43.23562" lon="5.46181">
        <ele>400.5</ele>
        <time>2025-10-12T12:31:11Z</time>
      </trkpt>
      <trkpt lat="43.23576" lon="5.46176">
        <ele>402</ele>
        <time>2025-10-12T12:31:32Z</time>
      </trkpt>
      <trkpt lat="43.2358" lon="5.46148">
        <ele>403.9</ele>
        <time>2025-10-12T12:31:53Z</time>
      </trkpt>
      <trkpt lat="43.23582" lon="5.46126">
        <ele>400.7</ele>
        <time>2025-10-12T12:32:14Z</time>
      </trkpt>
      <trkpt lat="43.23584" lon="5.46109">
        <ele>397.2</ele>
        <time>2025-10-12T12:32:35Z</time>
      </trkpt>
      <trkpt lat="43.23583" lon="5.46087">
        <ele>392.4</ele>
        <time>2025-10-12T12:32:56Z</time>
      </trkpt>
      <trkpt lat="43.2358" lon="5.46065">
        <ele>389.3</ele>
        <time>2025-10-12T12:33:17Z</time>
      </trkpt>
      <trkpt lat="43.23576" lon="5.46041">
        <ele>386.6</ele>
        <time>2025-10-12T12:33:38Z</time>
      </trkpt>
      <trkpt lat="43.23571" lon="5.46018">
        <ele>383.4</ele>
        <time>2025-10-12T12:33:59Z</time>
      </trkpt>
      <trkpt lat="43.23574" lon="5.46002">
        <ele>379.2</ele>
        <time>2025-10-12T12:34:20Z</time>
      </trkpt>
      <trkpt lat="43.23573" lon="5.45981">
        <ele>375.7</ele>
        <time>2025-10-12T12:34:41Z</time>
      </trkpt>
      <trkpt lat="43.23572" lon="5.45956">
        <ele>370.6</ele>
        <time>2025-10-12T12:35:02Z</time>
      </trkpt>
      <trkpt lat="43.23575" lon="5.45933">
        <ele>367.6</ele>
        <time>2025-10-12T12:35:23Z</time>
      </trkpt>
      <trkpt lat="43.23579" lon="5.4591">
        <ele>364.9</ele>
        <time>2025-10-12T12:35:44Z</time>
      </trkpt>
      <trkpt lat="43.23591" lon="5.45896">
        <ele>360.9</ele>
        <time>2025-10-12T12:36:05Z</time>
      </trkpt>
      <trkpt lat="43.23595" lon="5.45874">
        <ele>360</ele>
        <time>2025-10-12T12:36:26Z</time>
      </trkpt>
      <trkpt lat="43.23609" lon="5.45851">
        <ele>358.4</ele>
        <time>2025-10-12T12:36:47Z</time>
      </trkpt>
      <trkpt lat="43.23624" lon="5.45833">
        <ele>356.7</ele>
        <time>2025-10-12T12:37:08Z</time>
      </trkpt>
      <trkpt lat="43.23641" lon="5.45815">
        <ele>352.8</ele>
        <time>2025-10-12T12:37:29Z</time>
      </trkpt>
      <trkpt lat="43.23662" lon="5.4581">
        <ele>348.7</ele>
        <time>2025-10-12T12:37:50Z</time>
      </trkpt>
      <trkpt lat="43.23682" lon="5.45806">
        <ele>344.1</ele>
        <time>2025-10-12T12:38:11Z</time>
      </trkpt>
      <trkpt lat="43.23703" lon="5.45802">
        <ele>340.7</ele>
        <time>2025-10-12T12:38:32Z</time>
      </trkpt>
      <trkpt lat="43.23726" lon="5.45799">
        <ele>340</ele>
        <time>2025-10-12T12:38:53Z</time>
      </trkpt>
      <trkpt lat="43.23751" lon="5.45802">
        <ele>340.5</ele>
        <time>2025-10-12T12:39:14Z</time>
      </trkpt>
      <trkpt lat="43.23776" lon="5.45809">
        <ele>336.7</ele>
        <time>2025-10-12T12:39:35Z</time>
      </trkpt>
      <trkpt lat="43.23799" lon="5.45803">
        <ele>338.3</ele>
        <time>2025-10-12T12:39:56Z</time>
      </trkpt>
      <trkpt lat="43.2382" lon="5.45788">
        <ele>343.7</ele>
        <time>2025-10-12T12:40:17Z</time>
      </trkpt>
      <trkpt lat="43.23844" lon="5.45776">
        <ele>345.6</ele>
        <time>2025-10-12T12:40:38Z</time>
      </trkpt>
      <trkpt lat="43.23868" lon="5.45762">
        <ele>346.2</ele>
        <time>2025-10-12T12:40:59Z</time>
      </trkpt>
      <trkpt lat="43.23883" lon="5.45738">
        <ele>346.2</ele>
        <time>2025-10-12T12:41:20Z</time>
      </trkpt>
      <trkpt lat="43.23901" lon="5.45713">
        <ele>345.6</ele>
        <time>2025-10-12T12:41:41Z</time>
      </trkpt>
      <trkpt lat="43.2392" lon="5.45693">
        <ele>344.2</ele>
        <time>2025-10-12T12:42:02Z</time>
      </trkpt>
      <trkpt lat="43.23947" lon="5.45697">
        <ele>340.7</ele>
        <time>2025-10-12T12:42:23Z</time>
      </trkpt>
      <trkpt lat="43.23971" lon="5.45709">
        <ele>336.8</ele>
        <time>2025-10-12T12:42:44Z</time>
      </trkpt>
      <trkpt lat="43.23985" lon="5.45701">
        <ele>337.6</ele>
        <time>2025-10-12T12:43:05Z</time>
      </trkpt>
      <trkpt lat="43.24" lon="5.45699">
        <ele>338.1</ele>
        <time>2025-10-12T12:43:26Z</time>
      </trkpt>
      <trkpt lat="43.24006" lon="5.45699">
        <ele>338.8</ele>
        <time>2025-10-12T12:43:47Z</time>
      </trkpt>
      <trkpt lat="43.24029" lon="5.45695">
        <ele>338</ele>
        <time>2025-10-12T12:44:08Z</time>
      </trkpt>
    </trkseg>
  </trk>
</gpx>